Home > Products > Valid Products > TAF

000
FTUS44 KHGX 302013 AAA
TAFHOU
TAF AMD
KHOU 302013Z 3020/3118 14005KT P6SM VCSH FEW120 SCT250
     FM310200 VRB03KT P6SM FEW020 SCT070 BKN250
     FM311500 02007KT P6SM VCSH SCT060 SCT250=



000
FTUS44 KHGX 302013 AAA
TAFHOU
TAF AMD
KHOU 302013Z 3020/3118 14005KT P6SM VCSH FEW120 SCT250
     FM310200 VRB03KT P6SM FEW020 SCT070 BKN250
     FM311500 02007KT P6SM VCSH SCT060 SCT250=



000
FTUS44 KHGX 302013 AAA
TAFIAH
TAF AMD
KIAH 302013Z 3020/3124 10003KT P6SM VCSH FEW060 SCT150 BKN250
     FM310200 VRB03KT P6SM FEW020 SCT070 BKN250
     FM311800 03008KT P6SM VCSH SCT060 SCT250=



000
FTUS44 KHGX 302013 AAA
TAFIAH
TAF AMD
KIAH 302013Z 3020/3124 10003KT P6SM VCSH FEW060 SCT150 BKN250
     FM310200 VRB03KT P6SM FEW020 SCT070 BKN250
     FM311800 03008KT P6SM VCSH SCT060 SCT250=



000
FTUS44 KHGX 302013 CCA
TAFHOU
TAF COR
KHOU 302013Z 3020/3118 VRB05KT P6SM VCSH FEW120 SCT250
     FM310200 VRB03KT P6SM FEW020 SCT070 BKN250
     FM311500 02007KT P6SM VCSH SCT060 SCT250=



000
FTUS44 KHGX 302009 AAB
TAFUTS
TAF AMD
KUTS 302009Z 3020/3118 VRB04KT P6SM VCSH FEW070 SCT090
      TEMPO 3020/3022 VRB10G20KT
     FM310300 00000KT P6SM SCT250=



000
FTUS44 KHGX 302009 AAB
TAFUTS
TAF AMD
KUTS 302009Z 3020/3118 VRB04KT P6SM VCSH FEW070 SCT090
      TEMPO 3020/3022 VRB10G20KT
     FM310300 00000KT P6SM SCT250=



000
FTUS44 KHGX 302007 AAB
TAFCXO
TAF AMD
KCXO 302007Z 3020/3118 VRB05KT P6SM VCSH FEW045 BKN070 BKN090
      TEMPO 3020/3021 VRB10G20KT
     FM310300 VRB04KT P6SM SCT070
     FM311500 03005KT P6SM SCT250=



000
FTUS44 KHGX 301919 AAA
TAFCXO
TAF AMD
KCXO 301919Z 3019/3118 16003KT P6SM VCSH FEW070 SCT110
     FM310300 VRB04KT P6SM SCT070
     FM311500 03005KT P6SM SCT250=



000
FTUS44 KHGX 301919 AAA
TAFCXO
TAF AMD
KCXO 301919Z 3019/3118 16003KT P6SM VCSH FEW070 SCT110
     FM310300 VRB04KT P6SM SCT070
     FM311500 03005KT P6SM SCT250=



000
FTUS44 KHGX 301913 AAA
TAFLBX
TAF AMD
KLBX 301913Z 3019/3118 VRB05KT P6SM VCSH SCT060
     FM302300 VRB02KT P6SM SCT250
     FM310900 00000KT 5SM BR SKC
     FM311500 30002KT P6SM SKC=



000
FTUS44 KHGX 301913 AAA
TAFLBX
TAF AMD
KLBX 301913Z 3019/3118 VRB05KT P6SM VCSH SCT060
     FM302300 VRB02KT P6SM SCT250
     FM310900 00000KT 5SM BR SKC
     FM311500 30002KT P6SM SKC=



000
FTUS44 KHGX 301913 AAA
TAFLBX
TAF AMD
KLBX 301913Z 3019/3118 VRB05KT P6SM VCSH SCT060
     FM302300 VRB02KT P6SM SCT250
     FM310900 00000KT 5SM BR SKC
     FM311500 30002KT P6SM SKC=



000
FTUS44 KHGX 301856 AAA
TAFUTS
TAF AMD
KUTS 301856Z 3019/3118 30005KT P6SM VCSH SCT060
     FM310300 00000KT P6SM SCT250=



000
FTUS44 KHGX 301856 AAA
TAFUTS
TAF AMD
KUTS 301856Z 3019/3118 30005KT P6SM VCSH SCT060
     FM310300 00000KT P6SM SCT250=



000
FTUS44 KHGX 301732
TAFUTS
TAF
KUTS 301732Z 3018/3118 30005KT P6SM SKC
     FM310000 00000KT P6SM SCT250=



000
FTUS44 KHGX 301732
TAFGLS
TAF
KGLS 301732Z 3018/3118 36005KT P6SM VCSH FEW090 SCT110
     FM302300 24006KT P6SM FEW035 SCT250
     FM310900 29007KT P6SM VCSH FEW040 SCT250=



000
FTUS44 KHGX 301732
TAFLBX
TAF
KLBX 301732Z 3018/3118 32005KT P6SM BKN080
     FM302300 VRB02KT P6SM SCT250
     FM310900 00000KT 5SM BR SKC
     FM311500 30002KT P6SM SKC=



000
FTUS44 KHGX 301732
TAFSGR
TAF
KSGR 301732Z 3018/3118 30004KT P6SM FEW080 BKN100
     FM310200 VRB03KT P6SM FEW020 SCT070 BKN250
     FM311500 02006KT P6SM VCSH SCT060 SCT250=



000
FTUS44 KHGX 301732
TAFHOU
TAF
KHOU 301732Z 3018/3118 33005KT P6SM VCSH SCT080 BKN100
     FM310200 VRB03KT P6SM FEW020 SCT070 BKN250
     FM311500 02007KT P6SM VCSH SCT060 SCT250=



000
FTUS44 KHGX 301732
TAFCXO
TAF
KCXO 301732Z 3018/3118 32006KT P6SM SCT110
     FM310300 VRB04KT P6SM SCT070
     FM311500 03005KT P6SM SCT250=



000
FTUS44 KHGX 301732
TAFCLL
TAF
KCLL 301732Z 3018/3118 30005KT P6SM FEW110
     FM302100 04006KT P6SM SCT070
     FM310400 VRB03KT P6SM SKC
     FM311500 07007KT P6SM SKC=



000
FTUS44 KHGX 301732
TAFSGR
TAF
KSGR 301732Z 3018/3118 30004KT P6SM FEW080 BKN100
     FM310200 VRB03KT P6SM FEW020 SCT070 BKN250
     FM311500 02006KT P6SM VCSH SCT060 SCT250=



000
FTUS44 KHGX 301732
TAFUTS
TAF
KUTS 301732Z 3018/3118 30005KT P6SM SKC
     FM310000 00000KT P6SM SCT250=



000
FTUS44 KHGX 301732
TAFGLS
TAF
KGLS 301732Z 3018/3118 36005KT P6SM VCSH FEW090 SCT110
     FM302300 24006KT P6SM FEW035 SCT250
     FM310900 29007KT P6SM VCSH FEW040 SCT250=



000
FTUS44 KHGX 301732
TAFHOU
TAF
KHOU 301732Z 3018/3118 33005KT P6SM VCSH SCT080 BKN100
     FM310200 VRB03KT P6SM FEW020 SCT070 BKN250
     FM311500 02007KT P6SM VCSH SCT060 SCT250=



000
FTUS44 KHGX 301732
TAFIAH
TAF
KIAH 301732Z 3018/3124 28007KT P6SM VCSH SCT080 SCT100 BKN160
     FM310200 VRB03KT P6SM FEW020 SCT070 BKN250
     FM311800 03008KT P6SM VCSH SCT060 SCT250=



000
FTUS44 KHGX 301732
TAFCXO
TAF
KCXO 301732Z 3018/3118 32006KT P6SM SCT110
     FM310300 VRB04KT P6SM SCT070
     FM311500 03005KT P6SM SCT250=



000
FTUS44 KHGX 301732
TAFCLL
TAF
KCLL 301732Z 3018/3118 30005KT P6SM FEW110
     FM302100 04006KT P6SM SCT070
     FM310400 VRB03KT P6SM SKC
     FM311500 07007KT P6SM SKC=



000
FTUS44 KHGX 301732
TAFIAH
TAF
KIAH 301732Z 3018/3124 28007KT P6SM VCSH SCT080 SCT100 BKN160
     FM310200 VRB03KT P6SM FEW020 SCT070 BKN250
     FM311800 03008KT P6SM VCSH SCT060 SCT250=



000
FTUS44 KHGX 301732
TAFLBX
TAF
KLBX 301732Z 3018/3118 32005KT P6SM BKN080
     FM302300 VRB02KT P6SM SCT250
     FM310900 00000KT 5SM BR SKC
     FM311500 30002KT P6SM SKC=



000
FTUS44 KHGX 301625 AAB
TAFHOU
TAF AMD
KHOU 301625Z 3016/3112 33005KT P6SM VCSH SCT080 BKN100
     FM310100 19005KT P6SM SCT070
     FM310800 23003KT P6SM VCSH SCT250=



000
FTUS44 KHGX 301625 AAB
TAFHOU
TAF AMD
KHOU 301625Z 3016/3112 33005KT P6SM VCSH SCT080 BKN100
     FM310100 19005KT P6SM SCT070
     FM310800 23003KT P6SM VCSH SCT250=



000
FTUS44 KHGX 301625 AAB
TAFHOU
TAF AMD
KHOU 301625Z 3016/3112 33005KT P6SM VCSH SCT080 BKN100
     FM310100 19005KT P6SM SCT070
     FM310800 23003KT P6SM VCSH SCT250=



000
FTUS44 KHGX 301601 AAA
TAFHOU
TAF AMD
KHOU 301601Z 3016/3112 33005KT P6SM SCT080 BKN100
     FM301800 01007KT P6SM VCSH SCT080 BKN100
     FM301900 18005KT P6SM VCTS BKN060CB
     FM310100 22005KT P6SM SCT070
     FM310800 23003KT P6SM VCSH SCT250=



000
FTUS44 KHGX 301601 AAA
TAFHOU
TAF AMD
KHOU 301601Z 3016/3112 33005KT P6SM SCT080 BKN100
     FM301800 01007KT P6SM VCSH SCT080 BKN100
     FM301900 18005KT P6SM VCTS BKN060CB
     FM310100 22005KT P6SM SCT070
     FM310800 23003KT P6SM VCSH SCT250=



000
FTUS44 KHGX 301600 AAA
TAFIAH
TAF AMD
KIAH 301600Z 3016/3118 32007KT P6SM SCT130 BKN160
     FM301800 01007KT P6SM VCSH SCT060 BKN130
     FM302000 18005KT P6SM VCTS BKN060CB
     FM310200 22005KT P6SM SCT070
     FM311000 29004KT P6SM VCSH BKN060=



000
FTUS44 KHGX 301600 AAA
TAFIAH
TAF AMD
KIAH 301600Z 3016/3118 32007KT P6SM SCT130 BKN160
     FM301800 01007KT P6SM VCSH SCT060 BKN130
     FM302000 18005KT P6SM VCTS BKN060CB
     FM310200 22005KT P6SM SCT070
     FM311000 29004KT P6SM VCSH BKN060=



000
FTUS44 KHGX 301418 AAA
TAFLBX
TAF AMD
KLBX 301418Z 3014/3112 VRB04KT P6SM FEW005 FEW090 BKN110
     FM301800 19007KT P6SM VCTS BKN050CB
     FM302300 21007KT P6SM SCT250
     FM310800 VRB02KT P6SM SCT250=



000
FTUS44 KHGX 301418 AAA
TAFLBX
TAF AMD
KLBX 301418Z 3014/3112 VRB04KT P6SM FEW005 FEW090 BKN110
     FM301800 19007KT P6SM VCTS BKN050CB
     FM302300 21007KT P6SM SCT250
     FM310800 VRB02KT P6SM SCT250=



000
FTUS44 KHGX 301318 AAA
TAFCXO
TAF AMD
KCXO 301318Z 3013/3112 VRB04KT P6SM FEW015 FEW080
     FM302100 19005KT P6SM VCSH SCT080
     FM310300 VRB04KT P6SM SCT070
     FM310800 23003KT P6SM SCT250=



000
FTUS44 KHGX 301318 AAA
TAFCXO
TAF AMD
KCXO 301318Z 3013/3112 VRB04KT P6SM FEW015 FEW080
     FM302100 19005KT P6SM VCSH SCT080
     FM310300 VRB04KT P6SM SCT070
     FM310800 23003KT P6SM SCT250=



000
FTUS44 KHGX 301318 AAA
TAFCXO
TAF AMD
KCXO 301318Z 3013/3112 VRB04KT P6SM FEW015 FEW080
     FM302100 19005KT P6SM VCSH SCT080
     FM310300 VRB04KT P6SM SCT070
     FM310800 23003KT P6SM SCT250=



000
FTUS44 KHGX 301131
TAFLBX
TAF
KLBX 301131Z 3012/3112 00000KT 4SM BR FEW017 BKN250
      TEMPO 3012/3013 2SM BR
     FM301430 25004KT P6SM FEW015 FEW060 BKN250
     FM301800 19007KT P6SM VCTS BKN050CB
     FM302300 21007KT P6SM SCT250
     FM310800 VRB02KT P6SM SCT250=



000
FTUS44 KHGX 301131
TAFSGR
TAF
KSGR 301131Z 3012/3112 26004KT 5SM BR BKN250
     FM301300 26004KT P6SM FEW035 FEW080
     FM302000 19006KT P6SM VCTS BKN060CB
     FM310200 22005KT P6SM SCT070
     FM310800 23003KT P6SM SCT250=



000
FTUS44 KHGX 301131
TAFGLS
TAF
KGLS 301131Z 3012/3112 30006KT P6SM FEW060 BKN250
     FM301700 19008KT P6SM VCSH SCT035
     FM302300 24006KT P6SM FEW035 SCT250
     FM310900 25007KT P6SM VCSH FEW040 SCT250=



000
FTUS44 KHGX 301131
TAFHOU
TAF
KHOU 301131Z 3012/3112 29004KT P6SM FEW070 BKN250
     FM301600 26004KT P6SM FEW035 SCT070
     FM301900 18005KT P6SM VCTS BKN060CB
     FM310100 22005KT P6SM SCT070
     FM310800 23003KT P6SM VCSH SCT250=



000
FTUS44 KHGX 301131
TAFCXO
TAF
KCXO 301131Z 3012/3112 VRB03KT 6SM BR BKN015
     FM301400 26004KT P6SM FEW015 FEW080
     FM302100 19005KT P6SM VCSH SCT080
     FM310300 VRB04KT P6SM SCT070
     FM310800 23003KT P6SM SCT250=



000
FTUS44 KHGX 301131
TAFIAH
TAF
KIAH 301131Z 3012/3118 27003KT P6SM BKN250
      TEMPO 3012/3014 SCT018 OVC250
     FM301600 26004KT P6SM FEW080
     FM302000 18005KT P6SM VCTS BKN060CB
     FM310200 22005KT P6SM SCT070
     FM311000 29004KT P6SM VCSH BKN060=



000
FTUS44 KHGX 301131
TAFSGR
TAF
KSGR 301131Z 3012/3112 26004KT 5SM BR BKN250
     FM301300 26004KT P6SM FEW035 FEW080
     FM302000 19006KT P6SM VCTS BKN060CB
     FM310200 22005KT P6SM SCT070
     FM310800 23003KT P6SM SCT250=



000
FTUS44 KHGX 301131
TAFUTS
TAF
KUTS 301131Z 3012/3112 23003KT P6SM SCT250
     FM301500 23004KT P6SM FEW060
     FM302100 18005KT P6SM VCSH BKN070
     FM310400 15005KT P6SM SCT070
     FM310800 23003KT P6SM SCT250=



000
FTUS44 KHGX 301131
TAFCXO
TAF
KCXO 301131Z 3012/3112 VRB03KT 6SM BR BKN015
     FM301400 26004KT P6SM FEW015 FEW080
     FM302100 19005KT P6SM VCSH SCT080
     FM310300 VRB04KT P6SM SCT070
     FM310800 23003KT P6SM SCT250=



000
FTUS44 KHGX 301131
TAFIAH
TAF
KIAH 301131Z 3012/3118 27003KT P6SM BKN250
      TEMPO 3012/3014 SCT018 OVC250
     FM301600 26004KT P6SM FEW080
     FM302000 18005KT P6SM VCTS BKN060CB
     FM310200 22005KT P6SM SCT070
     FM311000 29004KT P6SM VCSH BKN060=



000
FTUS44 KHGX 301131
TAFHOU
TAF
KHOU 301131Z 3012/3112 29004KT P6SM FEW070 BKN250
     FM301600 26004KT P6SM FEW035 SCT070
     FM301900 18005KT P6SM VCTS BKN060CB
     FM310100 22005KT P6SM SCT070
     FM310800 23003KT P6SM VCSH SCT250=



000
FTUS44 KHGX 301131
TAFCLL
TAF
KCLL 301131Z 3012/3112 00000KT P6SM FEW080 SCT250
     FM301500 23006KT P6SM FEW060
     FM302100 16006KT P6SM SCT070
     FM310000 14005KT P6SM BKN070
     FM310400 VRB03KT P6SM SCT070
     FM310800 23003KT P6SM SCT250=



000
FTUS44 KHGX 301131
TAFCLL
TAF
KCLL 301131Z 3012/3112 00000KT P6SM FEW080 SCT250
     FM301500 23006KT P6SM FEW060
     FM302100 16006KT P6SM SCT070
     FM310000 14005KT P6SM BKN070
     FM310400 VRB03KT P6SM SCT070
     FM310800 23003KT P6SM SCT250=



000
FTUS44 KHGX 301131
TAFCLL
TAF
KCLL 301131Z 3012/3112 00000KT P6SM FEW080 SCT250
     FM301500 23006KT P6SM FEW060
     FM302100 16006KT P6SM SCT070
     FM310000 14005KT P6SM BKN070
     FM310400 VRB03KT P6SM SCT070
     FM310800 23003KT P6SM SCT250=



000
FTUS44 KHGX 301131
TAFIAH
TAF
KIAH 301131Z 3012/3118 27003KT P6SM BKN250
      TEMPO 3012/3014 SCT018 OVC250
     FM301600 26004KT P6SM FEW080
     FM302000 18005KT P6SM VCTS BKN060CB
     FM310200 22005KT P6SM SCT070
     FM311000 29004KT P6SM VCSH BKN060=



000
FTUS44 KHGX 301131
TAFHOU
TAF
KHOU 301131Z 3012/3112 29004KT P6SM FEW070 BKN250
     FM301600 26004KT P6SM FEW035 SCT070
     FM301900 18005KT P6SM VCTS BKN060CB
     FM310100 22005KT P6SM SCT070
     FM310800 23003KT P6SM VCSH SCT250=



000
FTUS44 KHGX 301131
TAFUTS
TAF
KUTS 301131Z 3012/3112 23003KT P6SM SCT250
     FM301500 23004KT P6SM FEW060
     FM302100 18005KT P6SM VCSH BKN070
     FM310400 15005KT P6SM SCT070
     FM310800 23003KT P6SM SCT250=



000
FTUS44 KHGX 301131
TAFCXO
TAF
KCXO 301131Z 3012/3112 VRB03KT 6SM BR BKN015
     FM301400 26004KT P6SM FEW015 FEW080
     FM302100 19005KT P6SM VCSH SCT080
     FM310300 VRB04KT P6SM SCT070
     FM310800 23003KT P6SM SCT250=



000
FTUS44 KHGX 301131
TAFCXO
TAF
KCXO 301131Z 3012/3112 VRB03KT 6SM BR BKN015
     FM301400 26004KT P6SM FEW015 FEW080
     FM302100 19005KT P6SM VCSH SCT080
     FM310300 VRB04KT P6SM SCT070
     FM310800 23003KT P6SM SCT250=



000
FTUS44 KHGX 301131
TAFHOU
TAF
KHOU 301131Z 3012/3112 29004KT P6SM FEW070 BKN250
     FM301600 26004KT P6SM FEW035 SCT070
     FM301900 18005KT P6SM VCTS BKN060CB
     FM310100 22005KT P6SM SCT070
     FM310800 23003KT P6SM VCSH SCT250=



000
FTUS44 KHGX 301131
TAFUTS
TAF
KUTS 301131Z 3012/3112 23003KT P6SM SCT250
     FM301500 23004KT P6SM FEW060
     FM302100 18005KT P6SM VCSH BKN070
     FM310400 15005KT P6SM SCT070
     FM310800 23003KT P6SM SCT250=



000
FTUS44 KHGX 301131
TAFLBX
TAF
KLBX 301131Z 3012/3112 00000KT 4SM BR FEW017 BKN250
      TEMPO 3012/3013 2SM BR
     FM301430 25004KT P6SM FEW015 FEW060 BKN250
     FM301800 19007KT P6SM VCTS BKN050CB
     FM302300 21007KT P6SM SCT250
     FM310800 VRB02KT P6SM SCT250=



000
FTUS44 KHGX 301131
TAFCLL
TAF
KCLL 301131Z 3012/3112 00000KT P6SM FEW080 SCT250
     FM301500 23006KT P6SM FEW060
     FM302100 16006KT P6SM SCT070
     FM310000 14005KT P6SM BKN070
     FM310400 VRB03KT P6SM SCT070
     FM310800 23003KT P6SM SCT250=



000
FTUS44 KHGX 301131
TAFGLS
TAF
KGLS 301131Z 3012/3112 30006KT P6SM FEW060 BKN250
     FM301700 19008KT P6SM VCSH SCT035
     FM302300 24006KT P6SM FEW035 SCT250
     FM310900 25007KT P6SM VCSH FEW040 SCT250=



000
FTUS44 KHGX 300918 AAA
TAFHOU
TAF AMD
KHOU 300918Z 3009/3106 26005KT P6SM BKN250
     FM301200 29004KT P6SM FEW070 OVC250
     FM301600 26004KT P6SM FEW080
     FM301900 18005KT P6SM VCSH BKN070 PROB30 3020/3023 -TSRA
      BKN050CB
     FM310200 22005KT P6SM SCT070=



000
FTUS44 KHGX 300918 AAA
TAFIAH
TAF AMD
KIAH 300918Z 3009/3112 27003KT P6SM BKN250
      TEMPO 3011/3014 SCT018 OVC250
     FM301600 26004KT P6SM FEW080
     FM302000 18005KT P6SM VCSH BKN070 PROB30 3020/3023 -TSRA
      BKN050CB
     FM310200 22005KT P6SM SCT070
     FM310700 29004KT P6SM VCSH BKN060=



000
FTUS44 KHGX 300918 AAA
TAFIAH
TAF AMD
KIAH 300918Z 3009/3112 27003KT P6SM BKN250
      TEMPO 3011/3014 SCT018 OVC250
     FM301600 26004KT P6SM FEW080
     FM302000 18005KT P6SM VCSH BKN070 PROB30 3020/3023 -TSRA
      BKN050CB
     FM310200 22005KT P6SM SCT070
     FM310700 29004KT P6SM VCSH BKN060=



000
FTUS44 KHGX 300918 AAA
TAFHOU
TAF AMD
KHOU 300918Z 3009/3106 26005KT P6SM BKN250
     FM301200 29004KT P6SM FEW070 OVC250
     FM301600 26004KT P6SM FEW080
     FM301900 18005KT P6SM VCSH BKN070 PROB30 3020/3023 -TSRA
      BKN050CB
     FM310200 22005KT P6SM SCT070=



000
FTUS44 KHGX 300914 AAA
TAFSGR
TAF AMD
KSGR 300914Z 3009/3106 26004KT P6SM BKN250
      TEMPO 3010/3012 5SM BR
     FM301300 26004KT P6SM FEW015 FEW080
     FM302000 19006KT P6SM VCSH BKN070
     FM310200 22005KT P6SM SCT070=



000
FTUS44 KHGX 300914 AAA
TAFSGR
TAF AMD
KSGR 300914Z 3009/3106 26004KT P6SM BKN250
      TEMPO 3010/3012 5SM BR
     FM301300 26004KT P6SM FEW015 FEW080
     FM302000 19006KT P6SM VCSH BKN070
     FM310200 22005KT P6SM SCT070=



000
FTUS44 KHGX 300914 AAA
TAFSGR
TAF AMD
KSGR 300914Z 3009/3106 26004KT P6SM BKN250
      TEMPO 3010/3012 5SM BR
     FM301300 26004KT P6SM FEW015 FEW080
     FM302000 19006KT P6SM VCSH BKN070
     FM310200 22005KT P6SM SCT070=



000
FTUS44 KHGX 300914 AAA
TAFSGR
TAF AMD
KSGR 300914Z 3009/3106 26004KT P6SM BKN250
      TEMPO 3010/3012 5SM BR
     FM301300 26004KT P6SM FEW015 FEW080
     FM302000 19006KT P6SM VCSH BKN070
     FM310200 22005KT P6SM SCT070=



000
FTUS44 KHGX 300833 AAA
TAFLBX
TAF AMD
KLBX 300833Z 3009/3106 00000KT 5SM BR SCT250
     FM300930 00000KT 2SM BR SCT015 BKN250
     FM301430 25004KT P6SM FEW015 FEW060 BKN250
     FM301800 19007KT P6SM VCSH BKN060
     FM310000 VRB03KT P6SM SCT050=



000
FTUS44 KHGX 300833 AAA
TAFLBX
TAF AMD
KLBX 300833Z 3009/3106 00000KT 5SM BR SCT250
     FM300930 00000KT 2SM BR SCT015 BKN250
     FM301430 25004KT P6SM FEW015 FEW060 BKN250
     FM301800 19007KT P6SM VCSH BKN060
     FM310000 VRB03KT P6SM SCT050=



000
FTUS44 KHGX 300833 AAA
TAFLBX
TAF AMD
KLBX 300833Z 3009/3106 00000KT 5SM BR SCT250
     FM300930 00000KT 2SM BR SCT015 BKN250
     FM301430 25004KT P6SM FEW015 FEW060 BKN250
     FM301800 19007KT P6SM VCSH BKN060
     FM310000 VRB03KT P6SM SCT050=



000
FTUS44 KHGX 300720 AAA
TAFGLS
TAF AMD
KGLS 300720Z 3007/3106 26006KT P6SM SCT250
     FM301200 34006KT P6SM FEW060
     FM301700 19008KT P6SM VCSH SCT035
     FM302300 24007KT P6SM SCT050=



000
FTUS44 KHGX 300720 AAA
TAFGLS
TAF AMD
KGLS 300720Z 3007/3106 26006KT P6SM SCT250
     FM301200 34006KT P6SM FEW060
     FM301700 19008KT P6SM VCSH SCT035
     FM302300 24007KT P6SM SCT050=



000
FTUS44 KHGX 300520
TAFIAH
TAF
KIAH 300520Z 3006/3112 VRB04KT P6SM SCT250
     FM301000 VRB03KT P6SM FEW020 FEW070 SCT250
     FM301600 26004KT P6SM FEW080
     FM302000 18005KT P6SM VCSH BKN070
     FM310200 22005KT P6SM SCT070
     FM310700 29004KT P6SM VCSH BKN060=



000
FTUS44 KHGX 300520
TAFUTS
TAF
KUTS 300520Z 3006/3106 VRB03KT P6SM SKC
     FM301200 VRB03KT 6SM BR SCT007
     FM301500 23004KT P6SM FEW060
     FM302100 18005KT P6SM VCSH BKN070
     FM310400 15005KT P6SM SCT070=



000
FTUS44 KHGX 300520
TAFLBX
TAF
KLBX 300520Z 3006/3106 VRB03KT P6SM SKC
     FM300900 00000KT 3SM BR BKN015
     FM301430 25004KT P6SM FEW015 FEW060
     FM301800 19007KT P6SM VCSH BKN060
     FM310000 VRB03KT P6SM SCT050=



000
FTUS44 KHGX 300520
TAFCLL
TAF
KCLL 300520Z 3006/3106 VRB03KT P6SM SKC
     FM301200 00000KT 4SM BR FEW007 SCT015 SCT080
     FM301500 23006KT P6SM FEW060
     FM302100 16006KT P6SM SCT070
     FM310000 14005KT P6SM VCSH BKN070
     FM310400 VRB03KT P6SM SCT070=



000
FTUS44 KHGX 300520
TAFGLS
TAF
KGLS 300520Z 3006/3106 19008KT P6SM SKC
     FM301200 34006KT P6SM FEW060
     FM301700 19008KT P6SM VCSH SCT060
     FM302300 24007KT P6SM SCT050=



000
FTUS44 KHGX 300520
TAFCLL
TAF
KCLL 300520Z 3006/3106 VRB03KT P6SM SKC
     FM301200 00000KT 4SM BR FEW007 SCT015 SCT080
     FM301500 23006KT P6SM FEW060
     FM302100 16006KT P6SM SCT070
     FM310000 14005KT P6SM VCSH BKN070
     FM310400 VRB03KT P6SM SCT070=



000
FTUS44 KHGX 300520
TAFLBX
TAF
KLBX 300520Z 3006/3106 VRB03KT P6SM SKC
     FM300900 00000KT 3SM BR BKN015
     FM301430 25004KT P6SM FEW015 FEW060
     FM301800 19007KT P6SM VCSH BKN060
     FM310000 VRB03KT P6SM SCT050=



000
FTUS44 KHGX 300520
TAFCXO
TAF
KCXO 300520Z 3006/3106 VRB04KT P6SM SKC
     FM301200 VRB03KT 6SM BR BKN015
     FM301400 26004KT P6SM FEW015 FEW080
     FM302100 19005KT P6SM VCSH SCT080
     FM310300 VRB04KT P6SM SCT070=



000
FTUS44 KHGX 300520
TAFCXO
TAF
KCXO 300520Z 3006/3106 VRB04KT P6SM SKC
     FM301200 VRB03KT 6SM BR BKN015
     FM301400 26004KT P6SM FEW015 FEW080
     FM302100 19005KT P6SM VCSH SCT080
     FM310300 VRB04KT P6SM SCT070=



000
FTUS44 KHGX 300520
TAFGLS
TAF
KGLS 300520Z 3006/3106 19008KT P6SM SKC
     FM301200 34006KT P6SM FEW060
     FM301700 19008KT P6SM VCSH SCT060
     FM302300 24007KT P6SM SCT050=



000
FTUS44 KHGX 300520
TAFGLS
TAF
KGLS 300520Z 3006/3106 19008KT P6SM SKC
     FM301200 34006KT P6SM FEW060
     FM301700 19008KT P6SM VCSH SCT060
     FM302300 24007KT P6SM SCT050=



000
FTUS44 KHGX 300520
TAFHOU
TAF
KHOU 300520Z 3006/3106 VRB04KT P6SM SCT250
     FM301000 VRB03KT P6SM FEW020 FEW070 SCT250
     FM301600 26004KT P6SM FEW080
     FM301900 18005KT P6SM VCSH BKN070
     FM310200 22005KT P6SM SCT070=



000
FTUS44 KHGX 300520
TAFHOU
TAF
KHOU 300520Z 3006/3106 VRB04KT P6SM SCT250
     FM301000 VRB03KT P6SM FEW020 FEW070 SCT250
     FM301600 26004KT P6SM FEW080
     FM301900 18005KT P6SM VCSH BKN070
     FM310200 22005KT P6SM SCT070=



000
FTUS44 KHGX 300520
TAFSGR
TAF
KSGR 300520Z 3006/3106 VRB04KT P6SM FEW080
     FM300900 VRB03KT 3SM BR SCT015
     FM301300 26004KT P6SM FEW015 FEW080
     FM302000 19006KT P6SM VCSH BKN070
     FM310200 22005KT P6SM SCT070=



000
FTUS44 KHGX 300520
TAFCLL
TAF
KCLL 300520Z 3006/3106 VRB03KT P6SM SKC
     FM301200 00000KT 4SM BR FEW007 SCT015 SCT080
     FM301500 23006KT P6SM FEW060
     FM302100 16006KT P6SM SCT070
     FM310000 14005KT P6SM VCSH BKN070
     FM310400 VRB03KT P6SM SCT070=



000
FTUS44 KHGX 300520
TAFUTS
TAF
KUTS 300520Z 3006/3106 VRB03KT P6SM SKC
     FM301200 VRB03KT 6SM BR SCT007
     FM301500 23004KT P6SM FEW060
     FM302100 18005KT P6SM VCSH BKN070
     FM310400 15005KT P6SM SCT070=



000
FTUS44 KHGX 300520
TAFUTS
TAF
KUTS 300520Z 3006/3106 VRB03KT P6SM SKC
     FM301200 VRB03KT 6SM BR SCT007
     FM301500 23004KT P6SM FEW060
     FM302100 18005KT P6SM VCSH BKN070
     FM310400 15005KT P6SM SCT070=



000
FTUS44 KHGX 300520
TAFHOU
TAF
KHOU 300520Z 3006/3106 VRB04KT P6SM SCT250
     FM301000 VRB03KT P6SM FEW020 FEW070 SCT250
     FM301600 26004KT P6SM FEW080
     FM301900 18005KT P6SM VCSH BKN070
     FM310200 22005KT P6SM SCT070=



000
FTUS44 KHGX 300520
TAFIAH
TAF
KIAH 300520Z 3006/3112 VRB04KT P6SM SCT250
     FM301000 VRB03KT P6SM FEW020 FEW070 SCT250
     FM301600 26004KT P6SM FEW080
     FM302000 18005KT P6SM VCSH BKN070
     FM310200 22005KT P6SM SCT070
     FM310700 29004KT P6SM VCSH BKN060=



000
FTUS44 KHGX 300520
TAFUTS
TAF
KUTS 300520Z 3006/3106 VRB03KT P6SM SKC
     FM301200 VRB03KT 6SM BR SCT007
     FM301500 23004KT P6SM FEW060
     FM302100 18005KT P6SM VCSH BKN070
     FM310400 15005KT P6SM SCT070=



000
FTUS44 KHGX 300520
TAFCXO
TAF
KCXO 300520Z 3006/3106 VRB04KT P6SM SKC
     FM301200 VRB03KT 6SM BR BKN015
     FM301400 26004KT P6SM FEW015 FEW080
     FM302100 19005KT P6SM VCSH SCT080
     FM310300 VRB04KT P6SM SCT070=



000
FTUS44 KHGX 300520
TAFSGR
TAF
KSGR 300520Z 3006/3106 VRB04KT P6SM FEW080
     FM300900 VRB03KT 3SM BR SCT015
     FM301300 26004KT P6SM FEW015 FEW080
     FM302000 19006KT P6SM VCSH BKN070
     FM310200 22005KT P6SM SCT070=



000
FTUS44 KHGX 300520
TAFSGR
TAF
KSGR 300520Z 3006/3106 VRB04KT P6SM FEW080
     FM300900 VRB03KT 3SM BR SCT015
     FM301300 26004KT P6SM FEW015 FEW080
     FM302000 19006KT P6SM VCSH BKN070
     FM310200 22005KT P6SM SCT070=



000
FTUS44 KHGX 300520
TAFIAH
TAF
KIAH 300520Z 3006/3112 VRB04KT P6SM SCT250
     FM301000 VRB03KT P6SM FEW020 FEW070 SCT250
     FM301600 26004KT P6SM FEW080
     FM302000 18005KT P6SM VCSH BKN070
     FM310200 22005KT P6SM SCT070
     FM310700 29004KT P6SM VCSH BKN060=



000
FTUS44 KHGX 300520
TAFLBX
TAF
KLBX 300520Z 3006/3106 VRB03KT P6SM SKC
     FM300900 00000KT 3SM BR BKN015
     FM301430 25004KT P6SM FEW015 FEW060
     FM301800 19007KT P6SM VCSH BKN060
     FM310000 VRB03KT P6SM SCT050=



000
FTUS44 KHGX 300520
TAFIAH
TAF
KIAH 300520Z 3006/3112 VRB04KT P6SM SCT250
     FM301000 VRB03KT P6SM FEW020 FEW070 SCT250
     FM301600 26004KT P6SM FEW080
     FM302000 18005KT P6SM VCSH BKN070
     FM310200 22005KT P6SM SCT070
     FM310700 29004KT P6SM VCSH BKN060=



000
FTUS44 KHGX 300520
TAFLBX
TAF
KLBX 300520Z 3006/3106 VRB03KT P6SM SKC
     FM300900 00000KT 3SM BR BKN015
     FM301430 25004KT P6SM FEW015 FEW060
     FM301800 19007KT P6SM VCSH BKN060
     FM310000 VRB03KT P6SM SCT050=



000
FTUS44 KHGX 300520
TAFSGR
TAF
KSGR 300520Z 3006/3106 VRB04KT P6SM FEW080
     FM300900 VRB03KT 3SM BR SCT015
     FM301300 26004KT P6SM FEW015 FEW080
     FM302000 19006KT P6SM VCSH BKN070
     FM310200 22005KT P6SM SCT070=



000
FTUS44 KHGX 300520
TAFGLS
TAF
KGLS 300520Z 3006/3106 19008KT P6SM SKC
     FM301200 34006KT P6SM FEW060
     FM301700 19008KT P6SM VCSH SCT060
     FM302300 24007KT P6SM SCT050=



000
FTUS44 KHGX 300520
TAFCLL
TAF
KCLL 300520Z 3006/3106 VRB03KT P6SM SKC
     FM301200 00000KT 4SM BR FEW007 SCT015 SCT080
     FM301500 23006KT P6SM FEW060
     FM302100 16006KT P6SM SCT070
     FM310000 14005KT P6SM VCSH BKN070
     FM310400 VRB03KT P6SM SCT070=



000
FTUS44 KHGX 300520
TAFHOU
TAF
KHOU 300520Z 3006/3106 VRB04KT P6SM SCT250
     FM301000 VRB03KT P6SM FEW020 FEW070 SCT250
     FM301600 26004KT P6SM FEW080
     FM301900 18005KT P6SM VCSH BKN070
     FM310200 22005KT P6SM SCT070=



000
FTUS44 KHGX 300520
TAFCXO
TAF
KCXO 300520Z 3006/3106 VRB04KT P6SM SKC
     FM301200 VRB03KT 6SM BR BKN015
     FM301400 26004KT P6SM FEW015 FEW080
     FM302100 19005KT P6SM VCSH SCT080
     FM310300 VRB04KT P6SM SCT070=



000
FTUS44 KHGX 300300 AAA
TAFHOU
TAF AMD
KHOU 300300Z 3003/3024 VRB04KT P6SM SCT250
     FM301000 VRB03KT P6SM FEW020 FEW070 SCT250
     FM301600 26004KT P6SM FEW080
     FM301900 18005KT P6SM VCSH BKN070=



000
FTUS44 KHGX 300300 AAA
TAFHOU
TAF AMD
KHOU 300300Z 3003/3024 VRB04KT P6SM SCT250
     FM301000 VRB03KT P6SM FEW020 FEW070 SCT250
     FM301600 26004KT P6SM FEW080
     FM301900 18005KT P6SM VCSH BKN070=



000
FTUS44 KHGX 300300 AAA
TAFIAH
TAF AMD
KIAH 300300Z 3003/3106 VRB04KT P6SM SCT250
     FM301000 VRB03KT P6SM FEW020 FEW070 SCT250
     FM301600 26004KT P6SM FEW080
     FM302000 18005KT P6SM VCSH BKN070
     FM310200 22005KT P6SM SCT070=



000
FTUS44 KHGX 300300 AAA
TAFIAH
TAF AMD
KIAH 300300Z 3003/3106 VRB04KT P6SM SCT250
     FM301000 VRB03KT P6SM FEW020 FEW070 SCT250
     FM301600 26004KT P6SM FEW080
     FM302000 18005KT P6SM VCSH BKN070
     FM310200 22005KT P6SM SCT070=



000
FTUS44 KHGX 292320
TAFLBX
TAF
KLBX 292320Z 3000/3024 21006KT P6SM FEW070
     FM300200 VRB03KT P6SM SKC
     FM300900 00000KT 3SM BR BKN015
     FM301430 25004KT P6SM FEW015 FEW060
     FM301800 18006KT P6SM VCSH BKN060=



000
FTUS44 KHGX 292320
TAFHOU
TAF
KHOU 292320Z 3000/3024 16007KT P6SM SCT070
     FM300200 VRB04KT P6SM FEW080
     FM301000 VRB03KT P6SM FEW020 FEW070 SCT250
     FM301600 26004KT P6SM FEW080
     FM301900 18005KT P6SM VCSH BKN070=



000
FTUS44 KHGX 292320
TAFLBX
TAF
KLBX 292320Z 3000/3024 21006KT P6SM FEW070
     FM300200 VRB03KT P6SM SKC
     FM300900 00000KT 3SM BR BKN015
     FM301430 25004KT P6SM FEW015 FEW060
     FM301800 18006KT P6SM VCSH BKN060=



000
FTUS44 KHGX 292320
TAFIAH
TAF
KIAH 292320Z 3000/3106 14007KT P6SM FEW070
     FM300200 VRB04KT P6SM SKC
     FM301000 VRB03KT P6SM FEW020 FEW070 SCT250
     FM301600 26004KT P6SM FEW080
     FM302000 18005KT P6SM VCSH BKN070
     FM310200 22005KT P6SM SCT070=



000
FTUS44 KHGX 292320
TAFUTS
TAF
KUTS 292320Z 3000/3024 VRB05KT P6SM SKC
     FM300200 VRB03KT P6SM SKC
     FM301200 VRB03KT 6SM BR SCT007
     FM301500 23004KT P6SM FEW060
     FM302100 18005KT P6SM SCT070=



000
FTUS44 KHGX 292320
TAFCXO
TAF
KCXO 292320Z 3000/3024 12006KT P6SM SKC
     FM300200 VRB03KT P6SM SKC
     FM301200 VRB03KT 6SM BR BKN015
     FM301400 26004KT P6SM FEW015 FEW080
     FM302100 19005KT P6SM VCSH BKN070=



000
FTUS44 KHGX 292320
TAFGLS
TAF
KGLS 292320Z 3000/3024 18011KT P6SM SKC
     FM301200 34006KT P6SM FEW060
     FM301700 14008KT P6SM VCSH SCT060=



000
FTUS44 KHGX 292320
TAFCXO
TAF
KCXO 292320Z 3000/3024 12006KT P6SM SKC
     FM300200 VRB03KT P6SM SKC
     FM301200 VRB03KT 6SM BR BKN015
     FM301400 26004KT P6SM FEW015 FEW080
     FM302100 19005KT P6SM VCSH BKN070=



000
FTUS44 KHGX 292320
TAFUTS
TAF
KUTS 292320Z 3000/3024 VRB05KT P6SM SKC
     FM300200 VRB03KT P6SM SKC
     FM301200 VRB03KT 6SM BR SCT007
     FM301500 23004KT P6SM FEW060
     FM302100 18005KT P6SM SCT070=



000
FTUS44 KHGX 292320
TAFHOU
TAF
KHOU 292320Z 3000/3024 16007KT P6SM SCT070
     FM300200 VRB04KT P6SM FEW080
     FM301000 VRB03KT P6SM FEW020 FEW070 SCT250
     FM301600 26004KT P6SM FEW080
     FM301900 18005KT P6SM VCSH BKN070=



000
FTUS44 KHGX 292320
TAFIAH
TAF
KIAH 292320Z 3000/3106 14007KT P6SM FEW070
     FM300200 VRB04KT P6SM SKC
     FM301000 VRB03KT P6SM FEW020 FEW070 SCT250
     FM301600 26004KT P6SM FEW080
     FM302000 18005KT P6SM VCSH BKN070
     FM310200 22005KT P6SM SCT070=



000
FTUS44 KHGX 292320
TAFCLL
TAF
KCLL 292320Z 3000/3024 14008KT P6SM SKC
     FM301200 00000KT 4SM BR FEW007 SCT015 SCT080
     FM301500 23006KT P6SM FEW060
     FM302100 16006KT P6SM SCT070=



000
FTUS44 KHGX 292320
TAFGLS
TAF
KGLS 292320Z 3000/3024 18011KT P6SM SKC
     FM301200 34006KT P6SM FEW060
     FM301700 14008KT P6SM VCSH SCT060=



000
FTUS44 KHGX 292320
TAFSGR
TAF
KSGR 292320Z 3000/3024 13011KT P6SM SCT080
     FM300200 VRB04KT P6SM FEW080
     FM300900 VRB03KT 3SM BR SCT015
     FM301300 26004KT P6SM FEW015 FEW080
     FM302000 18005KT P6SM VCSH BKN070=



000
FTUS44 KHGX 292320
TAFCLL
TAF
KCLL 292320Z 3000/3024 14008KT P6SM SKC
     FM301200 00000KT 4SM BR FEW007 SCT015 SCT080
     FM301500 23006KT P6SM FEW060
     FM302100 16006KT P6SM SCT070=



000
FTUS44 KHGX 292320
TAFSGR
TAF
KSGR 292320Z 3000/3024 13011KT P6SM SCT080
     FM300200 VRB04KT P6SM FEW080
     FM300900 VRB03KT 3SM BR SCT015
     FM301300 26004KT P6SM FEW015 FEW080
     FM302000 18005KT P6SM VCSH BKN070=



000
FTUS44 KHGX 292150 AAB
TAFLBX
TAF AMD
KLBX 292150Z 2922/3018 17012KT P6SM VCTS SCT080CB
      TEMPO 2922/2923 VRB15KT 4SM TSRA BKN050CB
     FM292300 16007KT P6SM SCT050
     FM300600 00000KT P6SM FEW050
     FM300900 00000KT 3SM BR SCT015
     FM301400 VRB03KT P6SM SKC=



000
FTUS44 KHGX 292150 AAB
TAFLBX
TAF AMD
KLBX 292150Z 2922/3018 17012KT P6SM VCTS SCT080CB
      TEMPO 2922/2923 VRB15KT 4SM TSRA BKN050CB
     FM292300 16007KT P6SM SCT050
     FM300600 00000KT P6SM FEW050
     FM300900 00000KT 3SM BR SCT015
     FM301400 VRB03KT P6SM SKC=



000
FTUS44 KHGX 292111 AAA
TAFHOU
TAF AMD
KHOU 292111Z 2921/3018 12008KT P6SM SCT070
     FM300200 VRB04KT P6SM FEW080
     FM301000 00000KT P6SM FEW020 SCT250=



000
FTUS44 KHGX 292111 AAA
TAFHOU
TAF AMD
KHOU 292111Z 2921/3018 12008KT P6SM SCT070
     FM300200 VRB04KT P6SM FEW080
     FM301000 00000KT P6SM FEW020 SCT250=



000
FTUS44 KHGX 292111 AAA
TAFIAH
TAF AMD
KIAH 292111Z 2921/3024 12008KT P6SM FEW070
     FM300200 VRB04KT P6SM FEW080
     FM301000 00000KT P6SM FEW020 SCT250=



000
FTUS44 KHGX 292111 AAA
TAFIAH
TAF AMD
KIAH 292111Z 2921/3024 12008KT P6SM FEW070
     FM300200 VRB04KT P6SM FEW080
     FM301000 00000KT P6SM FEW020 SCT250=



000
FTUS44 KHGX 291939 AAA
TAFCLL
TAF AMD
KCLL 291939Z 2920/3018 VRB04KT P6SM SKC
     FM301200 00000KT 4SM BR SCT015=



000
FTUS44 KHGX 291939 AAA
TAFCLL
TAF AMD
KCLL 291939Z 2920/3018 VRB04KT P6SM SKC
     FM301200 00000KT 4SM BR SCT015=



000
FTUS44 KHGX 291938 AAA
TAFLBX
TAF AMD
KLBX 291938Z 2920/3018 17012KT P6SM VCSH SCT050
     FM300600 00000KT P6SM FEW050
     FM300900 00000KT 3SM BR SCT015
     FM301400 VRB03KT P6SM SKC=



000
FTUS44 KHGX 291720
TAFIAH
TAF
KIAH 291720Z 2918/3024 00000KT P6SM FEW040
     FM292100 12008KT P6SM SCT070
     FM300200 VRB04KT P6SM FEW080
     FM301000 00000KT P6SM FEW020 SCT250=



000
FTUS44 KHGX 291720
TAFCXO
TAF
KCXO 291720Z 2918/3018 VRB05KT P6SM SKC
     FM300200 VRB03KT P6SM SKC
      TEMPO 3012/3015 4SM BR=



000
FTUS44 KHGX 291720
TAFLBX
TAF
KLBX 291720Z 2918/3018 13006KT P6SM SKC
     FM300000 00000KT P6SM FEW050
     FM300900 00000KT 3SM BR SCT015
     FM301400 VRB03KT P6SM SKC=



000
FTUS44 KHGX 291720
TAFCLL
TAF
KCLL 291720Z 2918/3018 20008KT P6SM SKC
     FM300200 VRB03KT P6SM SKC
     FM301200 00000KT 4SM BR SCT015=



000
FTUS44 KHGX 291720
TAFSGR
TAF
KSGR 291720Z 2918/3018 VRB04KT P6SM SKC
     FM292100 12008KT P6SM SCT070
     FM300200 VRB04KT P6SM FEW080
     FM301000 00000KT P6SM FEW020 SCT250=



000
FTUS44 KHGX 291720
TAFIAH
TAF
KIAH 291720Z 2918/3024 00000KT P6SM FEW040
     FM292100 12008KT P6SM SCT070
     FM300200 VRB04KT P6SM FEW080
     FM301000 00000KT P6SM FEW020 SCT250=



000
FTUS44 KHGX 291720
TAFHOU
TAF
KHOU 291720Z 2918/3018 00000KT P6SM FEW040
     FM292100 12008KT P6SM SCT070
     FM300200 VRB04KT P6SM FEW080
     FM301000 00000KT P6SM FEW020 SCT250=



000
FTUS44 KHGX 291720
TAFUTS
TAF
KUTS 291720Z 2918/3018 VRB04KT P6SM SKC
     FM300200 VRB03KT P6SM SKC
     FM301200 00000KT 6SM BR FEW009 SCT015=



000
FTUS44 KHGX 291720
TAFSGR
TAF
KSGR 291720Z 2918/3018 VRB04KT P6SM SKC
     FM292100 12008KT P6SM SCT070
     FM300200 VRB04KT P6SM FEW080
     FM301000 00000KT P6SM FEW020 SCT250=



000
FTUS44 KHGX 291720
TAFCXO
TAF
KCXO 291720Z 2918/3018 VRB05KT P6SM SKC
     FM300200 VRB03KT P6SM SKC
      TEMPO 3012/3015 4SM BR=



000
FTUS44 KHGX 291720
TAFLBX
TAF
KLBX 291720Z 2918/3018 13006KT P6SM SKC
     FM300000 00000KT P6SM FEW050
     FM300900 00000KT 3SM BR SCT015
     FM301400 VRB03KT P6SM SKC=



000
FTUS44 KHGX 291720
TAFGLS
TAF
KGLS 291720Z 2918/3018 19007KT P6SM FEW030
     FM301200 35005KT P6SM SKC=



000
FTUS44 KHGX 291720
TAFCLL
TAF
KCLL 291720Z 2918/3018 20008KT P6SM SKC
     FM300200 VRB03KT P6SM SKC
     FM301200 00000KT 4SM BR SCT015=



000
FTUS44 KHGX 291720
TAFCLL
TAF
KCLL 291720Z 2918/3018 20008KT P6SM SKC
     FM300200 VRB03KT P6SM SKC
     FM301200 00000KT 4SM BR SCT015=



000
FTUS44 KHGX 291720
TAFCXO
TAF
KCXO 291720Z 2918/3018 VRB05KT P6SM SKC
     FM300200 VRB03KT P6SM SKC
      TEMPO 3012/3015 4SM BR=



000
FTUS44 KHGX 291720
TAFHOU
TAF
KHOU 291720Z 2918/3018 00000KT P6SM FEW040
     FM292100 12008KT P6SM SCT070
     FM300200 VRB04KT P6SM FEW080
     FM301000 00000KT P6SM FEW020 SCT250=



000
FTUS44 KHGX 291720
TAFUTS
TAF
KUTS 291720Z 2918/3018 VRB04KT P6SM SKC
     FM300200 VRB03KT P6SM SKC
     FM301200 00000KT 6SM BR FEW009 SCT015=



000
FTUS44 KHGX 291720
TAFUTS
TAF
KUTS 291720Z 2918/3018 VRB04KT P6SM SKC
     FM300200 VRB03KT P6SM SKC
     FM301200 00000KT 6SM BR FEW009 SCT015=



000
FTUS44 KHGX 291720
TAFGLS
TAF
KGLS 291720Z 2918/3018 19007KT P6SM FEW030
     FM301200 35005KT P6SM SKC=



000
FTUS44 KHGX 291720
TAFLBX
TAF
KLBX 291720Z 2918/3018 13006KT P6SM SKC
     FM300000 00000KT P6SM FEW050
     FM300900 00000KT 3SM BR SCT015
     FM301400 VRB03KT P6SM SKC=



000
FTUS44 KHGX 291720
TAFSGR
TAF
KSGR 291720Z 2918/3018 VRB04KT P6SM SKC
     FM292100 12008KT P6SM SCT070
     FM300200 VRB04KT P6SM FEW080
     FM301000 00000KT P6SM FEW020 SCT250=



000
FTUS44 KHGX 291720
TAFIAH
TAF
KIAH 291720Z 2918/3024 00000KT P6SM FEW040
     FM292100 12008KT P6SM SCT070
     FM300200 VRB04KT P6SM FEW080
     FM301000 00000KT P6SM FEW020 SCT250=



000
FTUS44 KHGX 291720
TAFCXO
TAF
KCXO 291720Z 2918/3018 VRB05KT P6SM SKC
     FM300200 VRB03KT P6SM SKC
      TEMPO 3012/3015 4SM BR=



000
FTUS44 KHGX 291720
TAFSGR
TAF
KSGR 291720Z 2918/3018 VRB04KT P6SM SKC
     FM292100 12008KT P6SM SCT070
     FM300200 VRB04KT P6SM FEW080
     FM301000 00000KT P6SM FEW020 SCT250=



000
FTUS44 KHGX 291720
TAFGLS
TAF
KGLS 291720Z 2918/3018 19007KT P6SM FEW030
     FM301200 35005KT P6SM SKC=



000
FTUS44 KHGX 291720
TAFIAH
TAF
KIAH 291720Z 2918/3024 00000KT P6SM FEW040
     FM292100 12008KT P6SM SCT070
     FM300200 VRB04KT P6SM FEW080
     FM301000 00000KT P6SM FEW020 SCT250=



000
FTUS44 KHGX 291720
TAFHOU
TAF
KHOU 291720Z 2918/3018 00000KT P6SM FEW040
     FM292100 12008KT P6SM SCT070
     FM300200 VRB04KT P6SM FEW080
     FM301000 00000KT P6SM FEW020 SCT250=



000
FTUS44 KHGX 291720
TAFLBX
TAF
KLBX 291720Z 2918/3018 13006KT P6SM SKC
     FM300000 00000KT P6SM FEW050
     FM300900 00000KT 3SM BR SCT015
     FM301400 VRB03KT P6SM SKC=



000
FTUS44 KHGX 291720
TAFUTS
TAF
KUTS 291720Z 2918/3018 VRB04KT P6SM SKC
     FM300200 VRB03KT P6SM SKC
     FM301200 00000KT 6SM BR FEW009 SCT015=



000
FTUS44 KHGX 291720
TAFGLS
TAF
KGLS 291720Z 2918/3018 19007KT P6SM FEW030
     FM301200 35005KT P6SM SKC=



000
FTUS44 KHGX 291720
TAFCLL
TAF
KCLL 291720Z 2918/3018 20008KT P6SM SKC
     FM300200 VRB03KT P6SM SKC
     FM301200 00000KT 4SM BR SCT015=



000
FTUS44 KHGX 291720
TAFHOU
TAF
KHOU 291720Z 2918/3018 00000KT P6SM FEW040
     FM292100 12008KT P6SM SCT070
     FM300200 VRB04KT P6SM FEW080
     FM301000 00000KT P6SM FEW020 SCT250=



000
FTUS44 KHGX 291623 AAC
TAFLBX
TAF AMD
KLBX 291623Z 2916/3012 VRB03KT P6SM SKC
     FM291800 17010KT P6SM FEW050
     FM300000 00000KT P6SM FEW050
     FM300900 00000KT 3SM BR SCT015=



000
FTUS44 KHGX 291623 AAC
TAFLBX
TAF AMD
KLBX 291623Z 2916/3012 VRB03KT P6SM SKC
     FM291800 17010KT P6SM FEW050
     FM300000 00000KT P6SM FEW050
     FM300900 00000KT 3SM BR SCT015=



000
FTUS44 KHGX 291623 AAC
TAFLBX
TAF AMD
KLBX 291623Z 2916/3012 VRB03KT P6SM SKC
     FM291800 17010KT P6SM FEW050
     FM300000 00000KT P6SM FEW050
     FM300900 00000KT 3SM BR SCT015=



000
FTUS44 KHGX 291623 AAC
TAFLBX
TAF AMD
KLBX 291623Z 2916/3012 VRB03KT P6SM SKC
     FM291800 17010KT P6SM FEW050
     FM300000 00000KT P6SM FEW050
     FM300900 00000KT 3SM BR SCT015=



000
FTUS44 KHGX 291513 AAC
TAFSGR
TAF AMD
KSGR 291513Z 2915/3012 VRB03KT P6SM SCT017
     FM292200 14010KT P6SM SCT070
     FM300200 VRB04KT P6SM FEW250
     FM300900 00000KT 1 1/2SM BR SCT011=



000
FTUS44 KHGX 291513 AAC
TAFSGR
TAF AMD
KSGR 291513Z 2915/3012 VRB03KT P6SM SCT017
     FM292200 14010KT P6SM SCT070
     FM300200 VRB04KT P6SM FEW250
     FM300900 00000KT 1 1/2SM BR SCT011=



000
FTUS44 KHGX 291513 AAC
TAFSGR
TAF AMD
KSGR 291513Z 2915/3012 VRB03KT P6SM SCT017
     FM292200 14010KT P6SM SCT070
     FM300200 VRB04KT P6SM FEW250
     FM300900 00000KT 1 1/2SM BR SCT011=



000
FTUS44 KHGX 291512 AAB
TAFLBX
TAF AMD
KLBX 291512Z 2915/3012 00000KT P6SM SCT017
      TEMPO 2915/2917 BKN017
     FM291800 17010KT P6SM FEW050
     FM300000 00000KT P6SM FEW050
     FM300900 00000KT 3SM BR SCT015=



000
FTUS44 KHGX 291512 AAB
TAFLBX
TAF AMD
KLBX 291512Z 2915/3012 00000KT P6SM SCT017
      TEMPO 2915/2917 BKN017
     FM291800 17010KT P6SM FEW050
     FM300000 00000KT P6SM FEW050
     FM300900 00000KT 3SM BR SCT015=



000
FTUS44 KHGX 291449 AAD
TAFCLL
TAF AMD
KCLL 291449Z 2915/3012 21008KT P6SM SCT012
     FM292100 15007KT P6SM FEW060
     FM300200 14005KT P6SM SCT090=



000
FTUS44 KHGX 291449 AAD
TAFCLL
TAF AMD
KCLL 291449Z 2915/3012 21008KT P6SM SCT012
     FM292100 15007KT P6SM FEW060
     FM300200 14005KT P6SM SCT090=



000
FTUS44 KHGX 291449 AAD
TAFCLL
TAF AMD
KCLL 291449Z 2915/3012 21008KT P6SM SCT012
     FM292100 15007KT P6SM FEW060
     FM300200 14005KT P6SM SCT090=



000
FTUS44 KHGX 291449 AAD
TAFCLL
TAF AMD
KCLL 291449Z 2915/3012 21008KT P6SM SCT012
     FM292100 15007KT P6SM FEW060
     FM300200 14005KT P6SM SCT090=



000
FTUS44 KHGX 291448 AAB
TAFUTS
TAF AMD
KUTS 291448Z 2915/3012 VRB04KT P6SM SCT011
     FM292100 17007KT P6SM FEW060
     FM300200 VRB03KT P6SM SCT090=



000
FTUS44 KHGX 291448 AAB
TAFUTS
TAF AMD
KUTS 291448Z 2915/3012 VRB04KT P6SM SCT011
     FM292100 17007KT P6SM FEW060
     FM300200 VRB03KT P6SM SCT090=



000
FTUS44 KHGX 291438 AAB
TAFSGR
TAF AMD
KSGR 291438Z 2915/3012 VRB03KT P6SM SCT014
      TEMPO 2915/2916 BKN014
     FM292200 14010KT P6SM SCT070
     FM300200 VRB04KT P6SM FEW250
     FM300900 00000KT 1 1/2SM BR SCT011=



000
FTUS44 KHGX 291438 AAB
TAFSGR
TAF AMD
KSGR 291438Z 2915/3012 VRB03KT P6SM SCT014
      TEMPO 2915/2916 BKN014
     FM292200 14010KT P6SM SCT070
     FM300200 VRB04KT P6SM FEW250
     FM300900 00000KT 1 1/2SM BR SCT011=



000
FTUS44 KHGX 291435 AAB
TAFCXO
TAF AMD
KCXO 291435Z 2915/3012 VRB04KT P6SM FEW014
     FM291900 17007KT P6SM SCT080
     FM300200 VRB03KT P6SM FEW080=



000
FTUS44 KHGX 291435 AAB
TAFIAH
TAF AMD
KIAH 291435Z 2915/3018 VRB03KT P6SM SCT016 SCT250
     FM292100 12010KT P6SM SCT070
     FM300200 VRB04KT P6SM FEW080
     FM301000 00000KT P6SM FEW020 SCT250=



000
FTUS44 KHGX 291435 AAB
TAFIAH
TAF AMD
KIAH 291435Z 2915/3018 VRB03KT P6SM SCT016 SCT250
     FM292100 12010KT P6SM SCT070
     FM300200 VRB04KT P6SM FEW080
     FM301000 00000KT P6SM FEW020 SCT250=



000
FTUS44 KHGX 291435 AAB
TAFCXO
TAF AMD
KCXO 291435Z 2915/3012 VRB04KT P6SM FEW014
     FM291900 17007KT P6SM SCT080
     FM300200 VRB03KT P6SM FEW080=



000
FTUS44 KHGX 291403 AAC
TAFCLL
TAF AMD
KCLL 291403Z 2914/3012 25003KT P6SM SCT008 SCT013
      TEMPO 2914/2915 BKN008 BKN013
     FM292100 15007KT P6SM FEW060
     FM300200 14005KT P6SM SCT090=



000
FTUS44 KHGX 291403 AAC
TAFCLL
TAF AMD
KCLL 291403Z 2914/3012 25003KT P6SM SCT008 SCT013
      TEMPO 2914/2915 BKN008 BKN013
     FM292100 15007KT P6SM FEW060
     FM300200 14005KT P6SM SCT090=



000
FTUS44 KHGX 291403 AAC
TAFCLL
TAF AMD
KCLL 291403Z 2914/3012 25003KT P6SM SCT008 SCT013
      TEMPO 2914/2915 BKN008 BKN013
     FM292100 15007KT P6SM FEW060
     FM300200 14005KT P6SM SCT090=



000
FTUS44 KHGX 291353 AAB
TAFCLL
TAF AMD
KCLL 291353Z 2914/3012 25003KT P6SM FEW006
     FM292100 15007KT P6SM FEW060
     FM300200 14005KT P6SM SCT090=



000
FTUS44 KHGX 291353 AAB
TAFCLL
TAF AMD
KCLL 291353Z 2914/3012 25003KT P6SM FEW006
     FM292100 15007KT P6SM FEW060
     FM300200 14005KT P6SM SCT090=



000
FTUS44 KHGX 291352 AAA
TAFIAH
TAF AMD
KIAH 291352Z 2914/3018 VRB03KT P6SM FEW013 SCT250
      TEMPO 2914/2915 BKN013
     FM292100 12010KT P6SM SCT070
     FM300200 VRB04KT P6SM FEW080
     FM301000 00000KT P6SM FEW020 SCT250=



000
FTUS44 KHGX 291352 AAA
TAFIAH
TAF AMD
KIAH 291352Z 2914/3018 VRB03KT P6SM FEW013 SCT250
      TEMPO 2914/2915 BKN013
     FM292100 12010KT P6SM SCT070
     FM300200 VRB04KT P6SM FEW080
     FM301000 00000KT P6SM FEW020 SCT250=



000
FTUS44 KHGX 291351 AAA
TAFCXO
TAF AMD
KCXO 291351Z 2914/3012 VRB04KT P6SM FEW011 SCT250
      TEMPO 2914/2915 BKN011
     FM291900 17007KT P6SM SCT080
     FM300200 VRB03KT P6SM FEW080=



000
FTUS44 KHGX 291248 AAA
TAFCLL
TAF AMD
KCLL 291248Z 2913/3012 00000KT 5SM BR SCT007 OVC013
     FM291400 19005KT P6SM SCT015 SCT250
     FM292100 15007KT P6SM FEW060
     FM300200 14005KT P6SM SCT090=



000
FTUS44 KHGX 291248 AAA
TAFUTS
TAF AMD
KUTS 291248Z 2913/3012 VRB04KT P6SM SCT004 SCT250
      TEMPO 2913/2915 BKN004
     FM291500 21004KT P6SM SCT250
     FM292100 17007KT P6SM FEW060
     FM300200 VRB03KT P6SM SCT090=



000
FTUS44 KHGX 291248 AAA
TAFUTS
TAF AMD
KUTS 291248Z 2913/3012 VRB04KT P6SM SCT004 SCT250
      TEMPO 2913/2915 BKN004
     FM291500 21004KT P6SM SCT250
     FM292100 17007KT P6SM FEW060
     FM300200 VRB03KT P6SM SCT090=



000
FTUS44 KHGX 291248 AAA
TAFCLL
TAF AMD
KCLL 291248Z 2913/3012 00000KT 5SM BR SCT007 OVC013
     FM291400 19005KT P6SM SCT015 SCT250
     FM292100 15007KT P6SM FEW060
     FM300200 14005KT P6SM SCT090=



000
FTUS44 KHGX 291248 AAA
TAFUTS
TAF AMD
KUTS 291248Z 2913/3012 VRB04KT P6SM SCT004 SCT250
      TEMPO 2913/2915 BKN004
     FM291500 21004KT P6SM SCT250
     FM292100 17007KT P6SM FEW060
     FM300200 VRB03KT P6SM SCT090=



000
FTUS44 KHGX 291248 AAA
TAFCLL
TAF AMD
KCLL 291248Z 2913/3012 00000KT 5SM BR SCT007 OVC013
     FM291400 19005KT P6SM SCT015 SCT250
     FM292100 15007KT P6SM FEW060
     FM300200 14005KT P6SM SCT090=



000
FTUS44 KHGX 291248 AAA
TAFCLL
TAF AMD
KCLL 291248Z 2913/3012 00000KT 5SM BR SCT007 OVC013
     FM291400 19005KT P6SM SCT015 SCT250
     FM292100 15007KT P6SM FEW060
     FM300200 14005KT P6SM SCT090=



000
FTUS44 KHGX 291231 AAA
TAFSGR
TAF AMD
KSGR 291231Z 2913/3012 00000KT P6SM SKC
     FM291400 18005KT P6SM SCT015 SCT250
     FM292200 14010KT P6SM SCT070
     FM300200 VRB04KT P6SM FEW250
     FM300900 00000KT 1 1/2SM BR SCT011=



000
FTUS44 KHGX 291231 AAA
TAFSGR
TAF AMD
KSGR 291231Z 2913/3012 00000KT P6SM SKC
     FM291400 18005KT P6SM SCT015 SCT250
     FM292200 14010KT P6SM SCT070
     FM300200 VRB04KT P6SM FEW250
     FM300900 00000KT 1 1/2SM BR SCT011=



000
FTUS44 KHGX 291231 AAA
TAFSGR
TAF AMD
KSGR 291231Z 2913/3012 00000KT P6SM SKC
     FM291400 18005KT P6SM SCT015 SCT250
     FM292200 14010KT P6SM SCT070
     FM300200 VRB04KT P6SM FEW250
     FM300900 00000KT 1 1/2SM BR SCT011=



000
FTUS44 KHGX 291231 AAA
TAFSGR
TAF AMD
KSGR 291231Z 2913/3012 00000KT P6SM SKC
     FM291400 18005KT P6SM SCT015 SCT250
     FM292200 14010KT P6SM SCT070
     FM300200 VRB04KT P6SM FEW250
     FM300900 00000KT 1 1/2SM BR SCT011=



000
FTUS44 KHGX 291230 AAA
TAFLBX
TAF AMD
KLBX 291230Z 2913/3012 00000KT 6SM BR SKC
     FM291400 VRB04KT P6SM FEW025
     FM291800 17010KT P6SM FEW050
     FM300000 00000KT P6SM FEW050
     FM300900 00000KT 3SM BR SCT015=



000
FTUS44 KHGX 291230 AAA
TAFLBX
TAF AMD
KLBX 291230Z 2913/3012 00000KT 6SM BR SKC
     FM291400 VRB04KT P6SM FEW025
     FM291800 17010KT P6SM FEW050
     FM300000 00000KT P6SM FEW050
     FM300900 00000KT 3SM BR SCT015=



000
FTUS44 KHGX 291230 AAA
TAFLBX
TAF AMD
KLBX 291230Z 2913/3012 00000KT 6SM BR SKC
     FM291400 VRB04KT P6SM FEW025
     FM291800 17010KT P6SM FEW050
     FM300000 00000KT P6SM FEW050
     FM300900 00000KT 3SM BR SCT015=



000
FTUS44 KHGX 291230 AAA
TAFLBX
TAF AMD
KLBX 291230Z 2913/3012 00000KT 6SM BR SKC
     FM291400 VRB04KT P6SM FEW025
     FM291800 17010KT P6SM FEW050
     FM300000 00000KT P6SM FEW050
     FM300900 00000KT 3SM BR SCT015=



000
FTUS44 KHGX 291138 CCA
TAFSGR
TAF COR
KSGR 291138Z 2912/3012 VRB03KT 3SM BR BKN013
     FM291400 18005KT P6SM SCT015 SCT250
     FM292200 14010KT P6SM SCT070
     FM300200 VRB04KT P6SM FEW250
     FM300900 00000KT 1 1/2SM BR SCT011=



000
FTUS44 KHGX 291138 CCA
TAFSGR
TAF COR
KSGR 291138Z 2912/3012 VRB03KT 3SM BR BKN013
     FM291400 18005KT P6SM SCT015 SCT250
     FM292200 14010KT P6SM SCT070
     FM300200 VRB04KT P6SM FEW250
     FM300900 00000KT 1 1/2SM BR SCT011=



000
FTUS44 KHGX 291138 CCA
TAFSGR
TAF COR
KSGR 291138Z 2912/3012 VRB03KT 3SM BR BKN013
     FM291400 18005KT P6SM SCT015 SCT250
     FM292200 14010KT P6SM SCT070
     FM300200 VRB04KT P6SM FEW250
     FM300900 00000KT 1 1/2SM BR SCT011=



000
FTUS44 KHGX 291138 CCA
TAFSGR
TAF COR
KSGR 291138Z 2912/3012 VRB03KT 3SM BR BKN013
     FM291400 18005KT P6SM SCT015 SCT250
     FM292200 14010KT P6SM SCT070
     FM300200 VRB04KT P6SM FEW250
     FM300900 00000KT 1 1/2SM BR SCT011=



000
FTUS44 KHGX 291137
TAFLBX
TAF
KLBX 291137Z 2912/3012 00000KT 3SM BR FEW015
     FM291400 VRB04KT P6SM FEW025
     FM291800 17010KT P6SM FEW050
     FM300000 00000KT P6SM FEW050
     FM300900 00000KT 3SM BR SCT015=



000
FTUS44 KHGX 291137
TAFIAH
TAF
KIAH 291137Z 2912/3018 VRB03KT P6SM FEW020 SCT250
     FM292100 12010KT P6SM SCT070
     FM300200 VRB04KT P6SM FEW080
     FM301000 00000KT P6SM FEW020 SCT250=



000
FTUS44 KHGX 291137
TAFHOU
TAF
KHOU 291137Z 2912/3012 VRB03KT P6SM FEW016 SCT250
     FM292000 15010KT P6SM SCT070
     FM300200 VRB04KT P6SM FEW080
     FM301000 00000KT P6SM FEW020 SCT250=



000
FTUS44 KHGX 291137
TAFSGR
TAF
KSGR 291137Z 2912/3012 VRB03KT 3SM BR SCT013
     FM291400 18005KT P6SM FEW250
     FM292200 14010KT P6SM SCT070
     FM300200 VRB04KT P6SM FEW250
     FM300900 00000KT 1 1/2SM BR SCT011=



000
FTUS44 KHGX 291137
TAFCLL
TAF
KCLL 291137Z 2912/3012 00000KT 6SM BR OVC004
     FM291400 19005KT P6SM SCT015 SCT250
     FM292100 15007KT P6SM FEW060
     FM300200 14005KT P6SM SCT090=



000
FTUS44 KHGX 291137
TAFGLS
TAF
KGLS 291137Z 2912/3012 21003KT P6SM SKC
     FM291700 17010KT P6SM FEW060
     FM300500 20006KT P6SM SKC=



000
FTUS44 KHGX 291137
TAFSGR
TAF
KSGR 291137Z 2912/3012 VRB03KT 3SM BR SCT013
     FM291400 18005KT P6SM FEW250
     FM292200 14010KT P6SM SCT070
     FM300200 VRB04KT P6SM FEW250
     FM300900 00000KT 1 1/2SM BR SCT011=



000
FTUS44 KHGX 291137
TAFGLS
TAF
KGLS 291137Z 2912/3012 21003KT P6SM SKC
     FM291700 17010KT P6SM FEW060
     FM300500 20006KT P6SM SKC=



000
FTUS44 KHGX 291137
TAFLBX
TAF
KLBX 291137Z 2912/3012 00000KT 3SM BR FEW015
     FM291400 VRB04KT P6SM FEW025
     FM291800 17010KT P6SM FEW050
     FM300000 00000KT P6SM FEW050
     FM300900 00000KT 3SM BR SCT015=



000
FTUS44 KHGX 291137
TAFCXO
TAF
KCXO 291137Z 2912/3012 VRB04KT P6SM FEW015 SCT250
     FM291900 17007KT P6SM SCT080
     FM300200 VRB03KT P6SM FEW080=



000
FTUS44 KHGX 291137
TAFUTS
TAF
KUTS 291137Z 2912/3012 VRB04KT P6SM FEW015 SCT250
     FM291500 21004KT P6SM SCT250
     FM292100 17007KT P6SM FEW060
     FM300200 VRB03KT P6SM SCT090=



000
FTUS44 KHGX 291137
TAFUTS
TAF
KUTS 291137Z 2912/3012 VRB04KT P6SM FEW015 SCT250
     FM291500 21004KT P6SM SCT250
     FM292100 17007KT P6SM FEW060
     FM300200 VRB03KT P6SM SCT090=



000
FTUS44 KHGX 291137
TAFSGR
TAF
KSGR 291137Z 2912/3012 VRB03KT 3SM BR SCT013
     FM291400 18005KT P6SM FEW250
     FM292200 14010KT P6SM SCT070
     FM300200 VRB04KT P6SM FEW250
     FM300900 00000KT 1 1/2SM BR SCT011=



000
FTUS44 KHGX 291137
TAFUTS
TAF
KUTS 291137Z 2912/3012 VRB04KT P6SM FEW015 SCT250
     FM291500 21004KT P6SM SCT250
     FM292100 17007KT P6SM FEW060
     FM300200 VRB03KT P6SM SCT090=



000
FTUS44 KHGX 291137
TAFHOU
TAF
KHOU 291137Z 2912/3012 VRB03KT P6SM FEW016 SCT250
     FM292000 15010KT P6SM SCT070
     FM300200 VRB04KT P6SM FEW080
     FM301000 00000KT P6SM FEW020 SCT250=



000
FTUS44 KHGX 291137
TAFIAH
TAF
KIAH 291137Z 2912/3018 VRB03KT P6SM FEW020 SCT250
     FM292100 12010KT P6SM SCT070
     FM300200 VRB04KT P6SM FEW080
     FM301000 00000KT P6SM FEW020 SCT250=



000
FTUS44 KHGX 291137
TAFHOU
TAF
KHOU 291137Z 2912/3012 VRB03KT P6SM FEW016 SCT250
     FM292000 15010KT P6SM SCT070
     FM300200 VRB04KT P6SM FEW080
     FM301000 00000KT P6SM FEW020 SCT250=



000
FTUS44 KHGX 291137
TAFCLL
TAF
KCLL 291137Z 2912/3012 00000KT 6SM BR OVC004
     FM291400 19005KT P6SM SCT015 SCT250
     FM292100 15007KT P6SM FEW060
     FM300200 14005KT P6SM SCT090=



000
FTUS44 KHGX 291137
TAFUTS
TAF
KUTS 291137Z 2912/3012 VRB04KT P6SM FEW015 SCT250
     FM291500 21004KT P6SM SCT250
     FM292100 17007KT P6SM FEW060
     FM300200 VRB03KT P6SM SCT090=



000
FTUS44 KHGX 291137
TAFLBX
TAF
KLBX 291137Z 2912/3012 00000KT 3SM BR FEW015
     FM291400 VRB04KT P6SM FEW025
     FM291800 17010KT P6SM FEW050
     FM300000 00000KT P6SM FEW050
     FM300900 00000KT 3SM BR SCT015=



000
FTUS44 KHGX 291137
TAFSGR
TAF
KSGR 291137Z 2912/3012 VRB03KT 3SM BR SCT013
     FM291400 18005KT P6SM FEW250
     FM292200 14010KT P6SM SCT070
     FM300200 VRB04KT P6SM FEW250
     FM300900 00000KT 1 1/2SM BR SCT011=



000
FTUS44 KHGX 291137
TAFCLL
TAF
KCLL 291137Z 2912/3012 00000KT 6SM BR OVC004
     FM291400 19005KT P6SM SCT015 SCT250
     FM292100 15007KT P6SM FEW060
     FM300200 14005KT P6SM SCT090=



000
FTUS44 KHGX 291137
TAFIAH
TAF
KIAH 291137Z 2912/3018 VRB03KT P6SM FEW020 SCT250
     FM292100 12010KT P6SM SCT070
     FM300200 VRB04KT P6SM FEW080
     FM301000 00000KT P6SM FEW020 SCT250=



000
FTUS44 KHGX 291137
TAFGLS
TAF
KGLS 291137Z 2912/3012 21003KT P6SM SKC
     FM291700 17010KT P6SM FEW060
     FM300500 20006KT P6SM SKC=



000
FTUS44 KHGX 291137
TAFLBX
TAF
KLBX 291137Z 2912/3012 00000KT 3SM BR FEW015
     FM291400 VRB04KT P6SM FEW025
     FM291800 17010KT P6SM FEW050
     FM300000 00000KT P6SM FEW050
     FM300900 00000KT 3SM BR SCT015=



000
FTUS44 KHGX 291137
TAFCXO
TAF
KCXO 291137Z 2912/3012 VRB04KT P6SM FEW015 SCT250
     FM291900 17007KT P6SM SCT080
     FM300200 VRB03KT P6SM FEW080=



000
FTUS44 KHGX 291137
TAFCXO
TAF
KCXO 291137Z 2912/3012 VRB04KT P6SM FEW015 SCT250
     FM291900 17007KT P6SM SCT080
     FM300200 VRB03KT P6SM FEW080=



000
FTUS44 KHGX 291124 AAG
TAFSGR
TAF AMD
KSGR 291124Z 2911/3006 00000KT 3SM BR SCT013
      TEMPO 2911/2913 1/4SM FG VV013
     FM291400 VRB04KT P6SM SCT250
     FM292000 17006KT P6SM SCT070
     FM300200 VRB04KT P6SM FEW080=



000
FTUS44 KHGX 291124 AAG
TAFSGR
TAF AMD
KSGR 291124Z 2911/3006 00000KT 3SM BR SCT013
      TEMPO 2911/2913 1/4SM FG VV013
     FM291400 VRB04KT P6SM SCT250
     FM292000 17006KT P6SM SCT070
     FM300200 VRB04KT P6SM FEW080=



000
FTUS44 KHGX 291120 AAF
TAFSGR
TAF AMD
KSGR 291120Z 2911/3006 00000KT 6SM BR SCT013
      TEMPO 2911/2913 3/4SM BR VV013
     FM291400 VRB04KT P6SM SCT250
     FM292000 17006KT P6SM SCT070
     FM300200 VRB04KT P6SM FEW080=



000
FTUS44 KHGX 291120 AAF
TAFSGR
TAF AMD
KSGR 291120Z 2911/3006 00000KT 6SM BR SCT013
      TEMPO 2911/2913 3/4SM BR VV013
     FM291400 VRB04KT P6SM SCT250
     FM292000 17006KT P6SM SCT070
     FM300200 VRB04KT P6SM FEW080=



000
FTUS44 KHGX 291120 AAF
TAFSGR
TAF AMD
KSGR 291120Z 2911/3006 00000KT 6SM BR SCT013
      TEMPO 2911/2913 3/4SM BR VV013
     FM291400 VRB04KT P6SM SCT250
     FM292000 17006KT P6SM SCT070
     FM300200 VRB04KT P6SM FEW080=



000
FTUS44 KHGX 291120 AAF
TAFSGR
TAF AMD
KSGR 291120Z 2911/3006 00000KT 6SM BR SCT013
      TEMPO 2911/2913 3/4SM BR VV013
     FM291400 VRB04KT P6SM SCT250
     FM292000 17006KT P6SM SCT070
     FM300200 VRB04KT P6SM FEW080=



000
FTUS44 KHGX 291059 AAD
TAFCLL
TAF AMD
KCLL 291059Z 2911/3006 00000KT 6SM BR BKN006
     FM291500 19005KT P6SM SCT250
     FM292100 17007KT P6SM FEW060
     FM300200 14005KT P6SM SCT090=



000
FTUS44 KHGX 291059 AAD
TAFCLL
TAF AMD
KCLL 291059Z 2911/3006 00000KT 6SM BR BKN006
     FM291500 19005KT P6SM SCT250
     FM292100 17007KT P6SM FEW060
     FM300200 14005KT P6SM SCT090=



000
FTUS44 KHGX 291058 AAD
TAFLBX
TAF AMD
KLBX 291058Z 2911/3006 00000KT 3SM BR SCT015
      TEMPO 2911/2913 1 1/2SM BR
     FM291400 VRB04KT P6SM FEW025
     FM291900 17007KT P6SM FEW050
     FM300000 VRB03KT P6SM FEW050=



000
FTUS44 KHGX 291058 AAD
TAFLBX
TAF AMD
KLBX 291058Z 2911/3006 00000KT 3SM BR SCT015
      TEMPO 2911/2913 1 1/2SM BR
     FM291400 VRB04KT P6SM FEW025
     FM291900 17007KT P6SM FEW050
     FM300000 VRB03KT P6SM FEW050=



000
FTUS44 KHGX 291058 AAE
TAFSGR
TAF AMD
KSGR 291058Z 2911/3006 00000KT 6SM BR SCT011
     FM291400 VRB04KT P6SM SCT250
     FM292000 17006KT P6SM SCT070
     FM300200 VRB04KT P6SM FEW080=



000
FTUS44 KHGX 291058 AAE
TAFSGR
TAF AMD
KSGR 291058Z 2911/3006 00000KT 6SM BR SCT011
     FM291400 VRB04KT P6SM SCT250
     FM292000 17006KT P6SM SCT070
     FM300200 VRB04KT P6SM FEW080=



000
FTUS44 KHGX 291058 AAD
TAFLBX
TAF AMD
KLBX 291058Z 2911/3006 00000KT 3SM BR SCT015
      TEMPO 2911/2913 1 1/2SM BR
     FM291400 VRB04KT P6SM FEW025
     FM291900 17007KT P6SM FEW050
     FM300000 VRB03KT P6SM FEW050=



000
FTUS44 KHGX 291058 AAE
TAFSGR
TAF AMD
KSGR 291058Z 2911/3006 00000KT 6SM BR SCT011
     FM291400 VRB04KT P6SM SCT250
     FM292000 17006KT P6SM SCT070
     FM300200 VRB04KT P6SM FEW080=



000
FTUS44 KHGX 291029 AAC
TAFLBX
TAF AMD
KLBX 291029Z 2910/3006 00000KT 3SM BR SCT013
      TEMPO 2910/2912 1/4SM FG VV013
     FM291400 VRB04KT P6SM FEW025
     FM291900 17007KT P6SM FEW050
     FM300000 VRB03KT P6SM FEW050=



000
FTUS44 KHGX 291029 AAC
TAFLBX
TAF AMD
KLBX 291029Z 2910/3006 00000KT 3SM BR SCT013
      TEMPO 2910/2912 1/4SM FG VV013
     FM291400 VRB04KT P6SM FEW025
     FM291900 17007KT P6SM FEW050
     FM300000 VRB03KT P6SM FEW050=



000
FTUS44 KHGX 291015 AAC
TAFCLL
TAF AMD
KCLL 291015Z 2910/3006 19004KT P6SM SKC
     FM291100 VRB03KT 5SM BR BKN015
     FM291500 19005KT P6SM SCT250
     FM292100 17007KT P6SM FEW060
     FM300200 14005KT P6SM SCT090=



000
FTUS44 KHGX 291015 AAC
TAFCLL
TAF AMD
KCLL 291015Z 2910/3006 19004KT P6SM SKC
     FM291100 VRB03KT 5SM BR BKN015
     FM291500 19005KT P6SM SCT250
     FM292100 17007KT P6SM FEW060
     FM300200 14005KT P6SM SCT090=



000
FTUS44 KHGX 291015 AAC
TAFCLL
TAF AMD
KCLL 291015Z 2910/3006 19004KT P6SM SKC
     FM291100 VRB03KT 5SM BR BKN015
     FM291500 19005KT P6SM SCT250
     FM292100 17007KT P6SM FEW060
     FM300200 14005KT P6SM SCT090=



000
FTUS44 KHGX 291013 AAB
TAFLBX
TAF AMD
KLBX 291013Z 2910/3006 00000KT 3SM BR SCT013
      TEMPO 2910/2912 1 1/2SM BR BKN013
     FM291400 VRB04KT P6SM FEW025
     FM291900 17007KT P6SM FEW050
     FM300000 VRB03KT P6SM FEW050=



000
FTUS44 KHGX 291013 AAB
TAFLBX
TAF AMD
KLBX 291013Z 2910/3006 00000KT 3SM BR SCT013
      TEMPO 2910/2912 1 1/2SM BR BKN013
     FM291400 VRB04KT P6SM FEW025
     FM291900 17007KT P6SM FEW050
     FM300000 VRB03KT P6SM FEW050=



000
FTUS44 KHGX 291012 AAD
TAFSGR
TAF AMD
KSGR 291012Z 2910/3006 00000KT 3SM BR SCT011
      TEMPO 2910/2912 3/4SM BR VV011
     FM291400 VRB04KT P6SM SCT250
     FM292000 17006KT P6SM SCT070
     FM300200 VRB04KT P6SM FEW080=



000
FTUS44 KHGX 291000 AAC
TAFSGR
TAF AMD
KSGR 291000Z 2910/3006 00000KT 3/4SM BR VV011
     FM291200 VRB03KT 3SM BR SCT015
     FM291400 VRB04KT P6SM SCT250
     FM292000 17006KT P6SM SCT070
     FM300200 VRB04KT P6SM FEW080=



000
FTUS44 KHGX 290942 AAA
TAFLBX
TAF AMD
KLBX 290942Z 2910/3006 00000KT P6SM BKN014
     FM291100 VRB04KT 3SM BR BKN014
     FM291400 VRB04KT P6SM FEW025
     FM291900 17007KT P6SM FEW050
     FM300000 VRB03KT P6SM FEW050=



000
FTUS44 KHGX 290942 AAA
TAFLBX
TAF AMD
KLBX 290942Z 2910/3006 00000KT P6SM BKN014
     FM291100 VRB04KT 3SM BR BKN014
     FM291400 VRB04KT P6SM FEW025
     FM291900 17007KT P6SM FEW050
     FM300000 VRB03KT P6SM FEW050=



000
FTUS44 KHGX 290942 AAA
TAFLBX
TAF AMD
KLBX 290942Z 2910/3006 00000KT P6SM BKN014
     FM291100 VRB04KT 3SM BR BKN014
     FM291400 VRB04KT P6SM FEW025
     FM291900 17007KT P6SM FEW050
     FM300000 VRB03KT P6SM FEW050=



000
FTUS44 KHGX 290933 AAB
TAFSGR
TAF AMD
KSGR 290933Z 2910/3006 VRB02KT 1SM BR SCT011
      TEMPO 2910/2911 1/4SM FG VV011
     FM291100 VRB03KT 3SM BR SCT015
     FM291400 VRB04KT P6SM SCT250
     FM292000 17006KT P6SM SCT070
     FM300200 VRB04KT P6SM FEW080=



000
FTUS44 KHGX 290933 AAB
TAFSGR
TAF AMD
KSGR 290933Z 2910/3006 VRB02KT 1SM BR SCT011
      TEMPO 2910/2911 1/4SM FG VV011
     FM291100 VRB03KT 3SM BR SCT015
     FM291400 VRB04KT P6SM SCT250
     FM292000 17006KT P6SM SCT070
     FM300200 VRB04KT P6SM FEW080=



000
FTUS44 KHGX 290859 AAA
TAFHOU
TAF AMD
KHOU 290859Z 2909/3006 24003KT P6SM FEW250
     FM291100 VRB03KT P6SM FEW015
     FM292000 17007KT P6SM SCT060
     FM300200 VRB04KT P6SM FEW080=



000
FTUS44 KHGX 290859 AAA
TAFHOU
TAF AMD
KHOU 290859Z 2909/3006 24003KT P6SM FEW250
     FM291100 VRB03KT P6SM FEW015
     FM292000 17007KT P6SM SCT060
     FM300200 VRB04KT P6SM FEW080=



000
FTUS44 KHGX 290859 AAA
TAFIAH
TAF AMD
KIAH 290859Z 2909/3012 00000KT P6SM FEW130 SCT250
     FM291200 VRB03KT P6SM FEW007 BKN015
     FM291400 VRB04KT P6SM FEW015
     FM292100 19005KT P6SM SCT070
     FM300200 VRB04KT P6SM FEW080
     FM301000 VRB03KT P6SM FEW050 FEW080=



000
FTUS44 KHGX 290859 AAA
TAFHOU
TAF AMD
KHOU 290859Z 2909/3006 24003KT P6SM FEW250
     FM291100 VRB03KT P6SM FEW015
     FM292000 17007KT P6SM SCT060
     FM300200 VRB04KT P6SM FEW080=



000
FTUS44 KHGX 290847 AAA
TAFSGR
TAF AMD
KSGR 290847Z 2909/3006 VRB02KT 3SM BR MIFG SKC
      TEMPO 2909/2911 1SM BR
     FM291100 VRB03KT 3SM BR SCT015
     FM291400 VRB04KT P6SM SCT250
     FM292000 17006KT P6SM SCT070
     FM300200 VRB04KT P6SM FEW080=



000
FTUS44 KHGX 290820 AAB
TAFCLL
TAF AMD
KCLL 290820Z 2908/3006 14004KT P6SM SCT011
      TEMPO 2908/2911 BKN011
     FM291100 VRB03KT 5SM BR BKN015
     FM291500 19005KT P6SM SCT250
     FM292100 17007KT P6SM FEW060
     FM300200 14005KT P6SM SCT090=



000
FTUS44 KHGX 290820 AAB
TAFCLL
TAF AMD
KCLL 290820Z 2908/3006 14004KT P6SM SCT011
      TEMPO 2908/2911 BKN011
     FM291100 VRB03KT 5SM BR BKN015
     FM291500 19005KT P6SM SCT250
     FM292100 17007KT P6SM FEW060
     FM300200 14005KT P6SM SCT090=



000
FTUS44 KHGX 290820 AAB
TAFCLL
TAF AMD
KCLL 290820Z 2908/3006 14004KT P6SM SCT011
      TEMPO 2908/2911 BKN011
     FM291100 VRB03KT 5SM BR BKN015
     FM291500 19005KT P6SM SCT250
     FM292100 17007KT P6SM FEW060
     FM300200 14005KT P6SM SCT090=



000
FTUS44 KHGX 290757 AAA
TAFCLL
TAF AMD
KCLL 290757Z 2908/3006 14004KT P6SM SKC
     FM291100 VRB03KT 5SM BR BKN015
     FM291500 19005KT P6SM SCT250
     FM292100 17007KT P6SM FEW060
     FM300200 14005KT P6SM SCT090=



000
FTUS44 KHGX 290757 AAA
TAFCLL
TAF AMD
KCLL 290757Z 2908/3006 14004KT P6SM SKC
     FM291100 VRB03KT 5SM BR BKN015
     FM291500 19005KT P6SM SCT250
     FM292100 17007KT P6SM FEW060
     FM300200 14005KT P6SM SCT090=



000
FTUS44 KHGX 290520
TAFIAH
TAF
KIAH 290520Z 2906/3012 19006KT P6SM FEW250
     FM291200 VRB03KT P6SM FEW007 BKN015
     FM291400 VRB04KT P6SM FEW015
     FM292100 19005KT P6SM SCT070
     FM300200 VRB04KT P6SM FEW080
     FM301000 VRB03KT P6SM FEW050 FEW080=



000
FTUS44 KHGX 290520
TAFSGR
TAF
KSGR 290520Z 2906/3006 18005KT P6SM SKC
     FM291100 VRB03KT 3SM BR SCT015
     FM291400 VRB04KT P6SM SCT250
     FM292000 17006KT P6SM SCT070
     FM300200 VRB04KT P6SM FEW080=



000
FTUS44 KHGX 290520
TAFLBX
TAF
KLBX 290520Z 2906/3006 19005KT P6SM SKC
     FM291200 VRB04KT 4SM BR FEW015
     FM291400 VRB04KT P6SM FEW025
     FM291900 17007KT P6SM FEW050
     FM300000 VRB03KT P6SM FEW050=



000
FTUS44 KHGX 290520
TAFUTS
TAF
KUTS 290520Z 2906/3006 19007KT P6SM SKC
     FM291100 VRB03KT 4SM BR SCT006 BKN012
     FM291300 VRB04KT P6SM FEW015 SCT250
     FM291500 21004KT P6SM SCT250
     FM292100 17007KT P6SM FEW060
     FM300200 VRB03KT P6SM SCT090=



000
FTUS44 KHGX 290520
TAFHOU
TAF
KHOU 290520Z 2906/3006 20004KT P6SM FEW250
     FM291100 VRB03KT P6SM FEW015
     FM292000 17007KT P6SM SCT060
     FM300200 VRB04KT P6SM FEW080=



000
FTUS44 KHGX 290520
TAFSGR
TAF
KSGR 290520Z 2906/3006 18005KT P6SM SKC
     FM291100 VRB03KT 3SM BR SCT015
     FM291400 VRB04KT P6SM SCT250
     FM292000 17006KT P6SM SCT070
     FM300200 VRB04KT P6SM FEW080=



000
FTUS44 KHGX 290520
TAFHOU
TAF
KHOU 290520Z 2906/3006 20004KT P6SM FEW250
     FM291100 VRB03KT P6SM FEW015
     FM292000 17007KT P6SM SCT060
     FM300200 VRB04KT P6SM FEW080=



000
FTUS44 KHGX 290520
TAFCLL
TAF
KCLL 290520Z 2906/3006 19012KT P6SM SKC
     FM291100 VRB03KT 5SM BR BKN015
     FM291500 19005KT P6SM SCT250
     FM292100 17007KT P6SM FEW060
     FM300200 14005KT P6SM SCT090=



000
FTUS44 KHGX 290520
TAFGLS
TAF
KGLS 290520Z 2906/3006 19009KT P6SM SKC
     FM291700 17009KT P6SM FEW060
     FM300100 22008KT P6SM FEW050=



000
FTUS44 KHGX 290520
TAFCLL
TAF
KCLL 290520Z 2906/3006 19012KT P6SM SKC
     FM291100 VRB03KT 5SM BR BKN015
     FM291500 19005KT P6SM SCT250
     FM292100 17007KT P6SM FEW060
     FM300200 14005KT P6SM SCT090=



000
FTUS44 KHGX 290520
TAFCXO
TAF
KCXO 290520Z 2906/3006 19006KT P6SM SKC
     FM291200 VRB03KT 4SM BR SCT006 BKN012
     FM291400 VRB04KT P6SM FEW015 SCT250
     FM291900 17007KT P6SM SCT080
     FM300200 VRB03KT P6SM FEW080=



000
FTUS44 KHGX 290520
TAFLBX
TAF
KLBX 290520Z 2906/3006 19005KT P6SM SKC
     FM291200 VRB04KT 4SM BR FEW015
     FM291400 VRB04KT P6SM FEW025
     FM291900 17007KT P6SM FEW050
     FM300000 VRB03KT P6SM FEW050=



000
FTUS44 KHGX 290520
TAFIAH
TAF
KIAH 290520Z 2906/3012 19006KT P6SM FEW250
     FM291200 VRB03KT P6SM FEW007 BKN015
     FM291400 VRB04KT P6SM FEW015
     FM292100 19005KT P6SM SCT070
     FM300200 VRB04KT P6SM FEW080
     FM301000 VRB03KT P6SM FEW050 FEW080=



000
FTUS44 KHGX 290520
TAFCXO
TAF
KCXO 290520Z 2906/3006 19006KT P6SM SKC
     FM291200 VRB03KT 4SM BR SCT006 BKN012
     FM291400 VRB04KT P6SM FEW015 SCT250
     FM291900 17007KT P6SM SCT080
     FM300200 VRB03KT P6SM FEW080=



000
FTUS44 KHGX 290520
TAFUTS
TAF
KUTS 290520Z 2906/3006 19007KT P6SM SKC
     FM291100 VRB03KT 4SM BR SCT006 BKN012
     FM291300 VRB04KT P6SM FEW015 SCT250
     FM291500 21004KT P6SM SCT250
     FM292100 17007KT P6SM FEW060
     FM300200 VRB03KT P6SM SCT090=



000
FTUS44 KHGX 290520
TAFGLS
TAF
KGLS 290520Z 2906/3006 19009KT P6SM SKC
     FM291700 17009KT P6SM FEW060
     FM300100 22008KT P6SM FEW050=



000
FTUS44 KHGX 290520
TAFUTS
TAF
KUTS 290520Z 2906/3006 19007KT P6SM SKC
     FM291100 VRB03KT 4SM BR SCT006 BKN012
     FM291300 VRB04KT P6SM FEW015 SCT250
     FM291500 21004KT P6SM SCT250
     FM292100 17007KT P6SM FEW060
     FM300200 VRB03KT P6SM SCT090=



000
FTUS44 KHGX 290308 AAA
TAFIAH
TAF AMD
KIAH 290308Z 2903/3006 17006KT P6SM FEW040 SCT250
     FM291200 VRB03KT P6SM FEW007 BKN015
     FM291400 VRB04KT P6SM FEW015
     FM292100 19005KT P6SM FEW070
     FM300100 VRB04KT P6SM SKC=



000
FTUS44 KHGX 290308 AAA
TAFIAH
TAF AMD
KIAH 290308Z 2903/3006 17006KT P6SM FEW040 SCT250
     FM291200 VRB03KT P6SM FEW007 BKN015
     FM291400 VRB04KT P6SM FEW015
     FM292100 19005KT P6SM FEW070
     FM300100 VRB04KT P6SM SKC=



000
FTUS44 KHGX 290308 AAA
TAFHOU
TAF AMD
KHOU 290308Z 2903/2924 17007KT P6SM SCT250
     FM291100 VRB03KT P6SM FEW015
     FM292000 17007KT P6SM FEW070=



000
FTUS44 KHGX 290308 AAA
TAFIAH
TAF AMD
KIAH 290308Z 2903/3006 17006KT P6SM FEW040 SCT250
     FM291200 VRB03KT P6SM FEW007 BKN015
     FM291400 VRB04KT P6SM FEW015
     FM292100 19005KT P6SM FEW070
     FM300100 VRB04KT P6SM SKC=



000
FTUS44 KHGX 282338 CCA
TAFSGR
TAF COR
KSGR 282338Z 2900/2924 15010KT P6SM VCSH SCT070
     FM290200 17005KT P6SM FEW070 SCT150
     FM291100 VRB03KT 3SM BR SCT015
     FM291400 VRB04KT P6SM SCT250
     FM292000 17006KT P6SM FEW070=



000
FTUS44 KHGX 282338 CCA
TAFSGR
TAF COR
KSGR 282338Z 2900/2924 15010KT P6SM VCSH SCT070
     FM290200 17005KT P6SM FEW070 SCT150
     FM291100 VRB03KT 3SM BR SCT015
     FM291400 VRB04KT P6SM SCT250
     FM292000 17006KT P6SM FEW070=



000
FTUS44 KHGX 282337 CCA
TAFIAH
TAF COR
KIAH 282337Z 2900/3006 13011KT P6SM VCSH FEW070
     FM290200 16006KT P6SM SKC
     FM291200 VRB03KT P6SM FEW007 BKN015
     FM291400 VRB04KT P6SM FEW015
     FM292100 19005KT P6SM FEW070
     FM300100 VRB04KT P6SM SKC=



000
FTUS44 KHGX 282337 CCA
TAFIAH
TAF COR
KIAH 282337Z 2900/3006 13011KT P6SM VCSH FEW070
     FM290200 16006KT P6SM SKC
     FM291200 VRB03KT P6SM FEW007 BKN015
     FM291400 VRB04KT P6SM FEW015
     FM292100 19005KT P6SM FEW070
     FM300100 VRB04KT P6SM SKC=



000
FTUS44 KHGX 282337 CCA
TAFIAH
TAF COR
KIAH 282337Z 2900/3006 13011KT P6SM VCSH FEW070
     FM290200 16006KT P6SM SKC
     FM291200 VRB03KT P6SM FEW007 BKN015
     FM291400 VRB04KT P6SM FEW015
     FM292100 19005KT P6SM FEW070
     FM300100 VRB04KT P6SM SKC=



000
FTUS44 KHGX 282337 CCA
TAFIAH
TAF COR
KIAH 282337Z 2900/3006 13011KT P6SM VCSH FEW070
     FM290200 16006KT P6SM SKC
     FM291200 VRB03KT P6SM FEW007 BKN015
     FM291400 VRB04KT P6SM FEW015
     FM292100 19005KT P6SM FEW070
     FM300100 VRB04KT P6SM SKC=



000
FTUS44 KHGX 282320
TAFSGR
TAF
KSGR 282320Z 2900/2924 15010KT P6SM SCT070
     FM290200 17005KT P6SM FEW070 SCT150
     FM291100 VRB03KT 3SM BR SCT015
     FM291400 VRB04KT P6SM SCT250
     FM292000 17006KT P6SM FEW070=



000
FTUS44 KHGX 282320
TAFCXO
TAF
KCXO 282320Z 2900/2924 15009KT P6SM FEW060
     FM290300 VRB04KT P6SM SKC
     FM291200 VRB03KT 4SM BR SCT006 BKN012
     FM291400 VRB04KT P6SM FEW015 SCT250
     FM291900 17008KT P6SM FEW090=



000
FTUS44 KHGX 282320
TAFIAH
TAF
KIAH 282320Z 2900/3006 13011KT P6SM FEW070
     FM290200 16006KT P6SM SKC
     FM291200 VRB03KT P6SM FEW007 BKN015
     FM291400 VRB04KT P6SM FEW015
     FM292100 19005KT P6SM FEW070
     FM300100 VRB04KT P6SM SKC=



000
FTUS44 KHGX 282320
TAFHOU
TAF
KHOU 282320Z 2900/2924 16011KT P6SM FEW070
     FM290200 17005KT P6SM FEW070 SCT150
     FM291100 VRB03KT P6SM FEW015
     FM292000 17007KT P6SM FEW070=



000
FTUS44 KHGX 282320
TAFUTS
TAF
KUTS 282320Z 2900/2924 18007KT P6SM SCT060
     FM290200 17005KT P6SM SCT015
     FM291100 VRB03KT 4SM BR SCT006 BKN012
     FM291300 VRB04KT P6SM FEW015 SCT250
     FM291500 21004KT P6SM SCT250=



000
FTUS44 KHGX 282320
TAFSGR
TAF
KSGR 282320Z 2900/2924 15010KT P6SM SCT070
     FM290200 17005KT P6SM FEW070 SCT150
     FM291100 VRB03KT 3SM BR SCT015
     FM291400 VRB04KT P6SM SCT250
     FM292000 17006KT P6SM FEW070=



000
FTUS44 KHGX 282320
TAFCLL
TAF
KCLL 282320Z 2900/2924 16011KT P6SM FEW060
     FM290300 17007KT P6SM SKC
     FM291100 VRB03KT 5SM BR BKN015
     FM291500 17005KT P6SM SCT250=



000
FTUS44 KHGX 282320
TAFCLL
TAF
KCLL 282320Z 2900/2924 16011KT P6SM FEW060
     FM290300 17007KT P6SM SKC
     FM291100 VRB03KT 5SM BR BKN015
     FM291500 17005KT P6SM SCT250=



000
FTUS44 KHGX 282320
TAFSGR
TAF
KSGR 282320Z 2900/2924 15010KT P6SM SCT070
     FM290200 17005KT P6SM FEW070 SCT150
     FM291100 VRB03KT 3SM BR SCT015
     FM291400 VRB04KT P6SM SCT250
     FM292000 17006KT P6SM FEW070=



000
FTUS44 KHGX 282320
TAFSGR
TAF
KSGR 282320Z 2900/2924 15010KT P6SM SCT070
     FM290200 17005KT P6SM FEW070 SCT150
     FM291100 VRB03KT 3SM BR SCT015
     FM291400 VRB04KT P6SM SCT250
     FM292000 17006KT P6SM FEW070=



000
FTUS44 KHGX 282320
TAFCLL
TAF
KCLL 282320Z 2900/2924 16011KT P6SM FEW060
     FM290300 17007KT P6SM SKC
     FM291100 VRB03KT 5SM BR BKN015
     FM291500 17005KT P6SM SCT250=



000
FTUS44 KHGX 282320
TAFIAH
TAF
KIAH 282320Z 2900/3006 13011KT P6SM FEW070
     FM290200 16006KT P6SM SKC
     FM291200 VRB03KT P6SM FEW007 BKN015
     FM291400 VRB04KT P6SM FEW015
     FM292100 19005KT P6SM FEW070
     FM300100 VRB04KT P6SM SKC=



000
FTUS44 KHGX 282320
TAFCLL
TAF
KCLL 282320Z 2900/2924 16011KT P6SM FEW060
     FM290300 17007KT P6SM SKC
     FM291100 VRB03KT 5SM BR BKN015
     FM291500 17005KT P6SM SCT250=



000
FTUS44 KHGX 282320
TAFUTS
TAF
KUTS 282320Z 2900/2924 18007KT P6SM SCT060
     FM290200 17005KT P6SM SCT015
     FM291100 VRB03KT 4SM BR SCT006 BKN012
     FM291300 VRB04KT P6SM FEW015 SCT250
     FM291500 21004KT P6SM SCT250=



000
FTUS44 KHGX 282320
TAFGLS
TAF
KGLS 282320Z 2900/2924 16010KT P6SM SKC
     FM290500 21006KT P6SM FEW020
     FM291700 17009KT P6SM FEW060=



000
FTUS44 KHGX 282320
TAFHOU
TAF
KHOU 282320Z 2900/2924 16011KT P6SM FEW070
     FM290200 17005KT P6SM FEW070 SCT150
     FM291100 VRB03KT P6SM FEW015
     FM292000 17007KT P6SM FEW070=



000
FTUS44 KHGX 282320
TAFUTS
TAF
KUTS 282320Z 2900/2924 18007KT P6SM SCT060
     FM290200 17005KT P6SM SCT015
     FM291100 VRB03KT 4SM BR SCT006 BKN012
     FM291300 VRB04KT P6SM FEW015 SCT250
     FM291500 21004KT P6SM SCT250=



000
FTUS44 KHGX 282320
TAFLBX
TAF
KLBX 282320Z 2900/2924 18011KT P6SM SCT035
     FM290130 17005KT P6SM SCT150
     FM291200 VRB04KT 4SM BR FEW015
     FM291400 VRB04KT P6SM FEW025
     FM291900 17007KT P6SM FEW050=



000
FTUS44 KHGX 282320
TAFLBX
TAF
KLBX 282320Z 2900/2924 18011KT P6SM SCT035
     FM290130 17005KT P6SM SCT150
     FM291200 VRB04KT 4SM BR FEW015
     FM291400 VRB04KT P6SM FEW025
     FM291900 17007KT P6SM FEW050=



000
FTUS44 KHGX 282320
TAFCXO
TAF
KCXO 282320Z 2900/2924 15009KT P6SM FEW060
     FM290300 VRB04KT P6SM SKC
     FM291200 VRB03KT 4SM BR SCT006 BKN012
     FM291400 VRB04KT P6SM FEW015 SCT250
     FM291900 17008KT P6SM FEW090=



000
FTUS44 KHGX 282320
TAFGLS
TAF
KGLS 282320Z 2900/2924 16010KT P6SM SKC
     FM290500 21006KT P6SM FEW020
     FM291700 17009KT P6SM FEW060=



000
FTUS44 KHGX 282320
TAFIAH
TAF
KIAH 282320Z 2900/3006 13011KT P6SM FEW070
     FM290200 16006KT P6SM SKC
     FM291200 VRB03KT P6SM FEW007 BKN015
     FM291400 VRB04KT P6SM FEW015
     FM292100 19005KT P6SM FEW070
     FM300100 VRB04KT P6SM SKC=



000
FTUS44 KHGX 282059 AAA
TAFCXO
TAF AMD
KCXO 282059Z 2821/2918 16007KT P6SM SCT060
     FM290100 VRB03KT P6SM SCT015
     FM291500 VRB04KT P6SM SCT250=



000
FTUS44 KHGX 282059 AAA
TAFHOU
TAF AMD
KHOU 282059Z 2821/2918 16009KT P6SM SCT060
     FM290200 17005KT P6SM FEW070 SCT150
     FM291100 VRB03KT P6SM FEW015=



000
FTUS44 KHGX 282059 AAA
TAFCLL
TAF AMD
KCLL 282059Z 2821/2918 16011KT P6SM FEW060
     FM290300 17007KT P6SM SKC
     FM291100 VRB03KT 5SM BR BKN015
     FM291500 17005KT P6SM SCT250=



000
FTUS44 KHGX 282059 AAA
TAFSGR
TAF AMD
KSGR 282059Z 2821/2918 16009KT P6SM SCT060
     FM290200 17005KT P6SM FEW070 SCT150
     FM291100 VRB03KT 3SM BR FEW015
     FM291400 VRB04KT P6SM SCT250=



000
FTUS44 KHGX 282059 AAA
TAFIAH
TAF AMD
KIAH 282059Z 2821/2924 14009KT P6SM SCT060
     FM290200 17005KT P6SM FEW060
     FM291100 VRB03KT P6SM FEW015
     FM292100 14005KT P6SM SCT070=



000
FTUS44 KHGX 282059 AAA
TAFCLL
TAF AMD
KCLL 282059Z 2821/2918 16011KT P6SM FEW060
     FM290300 17007KT P6SM SKC
     FM291100 VRB03KT 5SM BR BKN015
     FM291500 17005KT P6SM SCT250=



000
FTUS44 KHGX 282059 AAA
TAFHOU
TAF AMD
KHOU 282059Z 2821/2918 16009KT P6SM SCT060
     FM290200 17005KT P6SM FEW070 SCT150
     FM291100 VRB03KT P6SM FEW015=



000
FTUS44 KHGX 282059 AAA
TAFLBX
TAF AMD
KLBX 282059Z 2821/2918 18011KT P6SM SCT050
     FM290100 17005KT P6SM SCT150
      TEMPO 2912/2914 4SM BR=



000
FTUS44 KHGX 282059 AAA
TAFLBX
TAF AMD
KLBX 282059Z 2821/2918 18011KT P6SM SCT050
     FM290100 17005KT P6SM SCT150
      TEMPO 2912/2914 4SM BR=



000
FTUS44 KHGX 282059 AAA
TAFCXO
TAF AMD
KCXO 282059Z 2821/2918 16007KT P6SM SCT060
     FM290100 VRB03KT P6SM SCT015
     FM291500 VRB04KT P6SM SCT250=



000
FTUS44 KHGX 282059 AAA
TAFUTS
TAF AMD
KUTS 282059Z 2821/2918 18007KT P6SM SCT060
     FM290200 17005KT P6SM SCT015
     FM291500 21004KT P6SM SCT250=



000
FTUS44 KHGX 282059 AAA
TAFGLS
TAF AMD
KGLS 282059Z 2821/2918 17011KT P6SM SKC
     FM290500 22007KT P6SM SKC=



000
FTUS44 KHGX 282059 AAA
TAFGLS
TAF AMD
KGLS 282059Z 2821/2918 17011KT P6SM SKC
     FM290500 22007KT P6SM SKC=



000
FTUS44 KHGX 282059 AAA
TAFUTS
TAF AMD
KUTS 282059Z 2821/2918 18007KT P6SM SCT060
     FM290200 17005KT P6SM SCT015
     FM291500 21004KT P6SM SCT250=



000
FTUS44 KHGX 282059 AAA
TAFIAH
TAF AMD
KIAH 282059Z 2821/2924 14009KT P6SM SCT060
     FM290200 17005KT P6SM FEW060
     FM291100 VRB03KT P6SM FEW015
     FM292100 14005KT P6SM SCT070=



000
FTUS44 KHGX 282059 AAA
TAFSGR
TAF AMD
KSGR 282059Z 2821/2918 16009KT P6SM SCT060
     FM290200 17005KT P6SM FEW070 SCT150
     FM291100 VRB03KT 3SM BR FEW015
     FM291400 VRB04KT P6SM SCT250=



000
FTUS44 KHGX 281737
TAFLBX
TAF
KLBX 281737Z 2818/2918 18011KT P6SM SCT050
     FM290100 17005KT P6SM SCT150
      TEMPO 2912/2914 4SM BR=



000
FTUS44 KHGX 281737
TAFSGR
TAF
KSGR 281737Z 2818/2918 17008KT P6SM SCT050
     FM282000 16009KT P6SM VCSH SCT060
     FM290200 17005KT P6SM FEW070 SCT150
     FM291100 VRB03KT 3SM BR FEW015
     FM291400 VRB04KT P6SM SCT250=



000
FTUS44 KHGX 281737
TAFLBX
TAF
KLBX 281737Z 2818/2918 18011KT P6SM SCT050
     FM290100 17005KT P6SM SCT150
      TEMPO 2912/2914 4SM BR=



000
FTUS44 KHGX 281737
TAFHOU
TAF
KHOU 281737Z 2818/2918 19007KT P6SM SCT030
     FM282000 16009KT P6SM VCSH SCT060
     FM290200 17005KT P6SM FEW070 SCT150
     FM291100 VRB03KT P6SM FEW015=



000
FTUS44 KHGX 281737
TAFGLS
TAF
KGLS 281737Z 2818/2918 17011KT P6SM SKC
     FM290500 22007KT P6SM SKC=



000
FTUS44 KHGX 281737
TAFUTS
TAF
KUTS 281737Z 2818/2918 20005KT P6SM FEW035
     FM282100 18007KT P6SM SCT060
     FM290200 17005KT P6SM SCT015
     FM291500 21004KT P6SM SCT250=



000
FTUS44 KHGX 281737
TAFCLL
TAF
KCLL 281737Z 2818/2918 16010KT P6SM FEW060
     FM290300 17007KT P6SM SKC
     FM291100 VRB03KT 5SM BR BKN015
     FM291500 17005KT P6SM SCT250=



000
FTUS44 KHGX 281737
TAFHOU
TAF
KHOU 281737Z 2818/2918 19007KT P6SM SCT030
     FM282000 16009KT P6SM VCSH SCT060
     FM290200 17005KT P6SM FEW070 SCT150
     FM291100 VRB03KT P6SM FEW015=



000
FTUS44 KHGX 281737
TAFCXO
TAF
KCXO 281737Z 2818/2918 VRB05KT P6SM SCT035
     FM282100 16007KT P6SM VCSH SCT060
     FM290100 VRB03KT P6SM SCT015
     FM291500 VRB04KT P6SM SCT250=



000
FTUS44 KHGX 281737
TAFIAH
TAF
KIAH 281737Z 2818/2924 19006KT P6SM SCT040
     FM282100 15008KT P6SM VCSH SCT060
     FM290200 17005KT P6SM FEW060
     FM291100 VRB03KT P6SM FEW015
     FM292100 14005KT P6SM SCT070=



000
FTUS44 KHGX 281737
TAFUTS
TAF
KUTS 281737Z 2818/2918 20005KT P6SM FEW035
     FM282100 18007KT P6SM SCT060
     FM290200 17005KT P6SM SCT015
     FM291500 21004KT P6SM SCT250=



000
FTUS44 KHGX 281737
TAFCLL
TAF
KCLL 281737Z 2818/2918 16010KT P6SM FEW060
     FM290300 17007KT P6SM SKC
     FM291100 VRB03KT 5SM BR BKN015
     FM291500 17005KT P6SM SCT250=



000
FTUS44 KHGX 281737
TAFSGR
TAF
KSGR 281737Z 2818/2918 17008KT P6SM SCT050
     FM282000 16009KT P6SM VCSH SCT060
     FM290200 17005KT P6SM FEW070 SCT150
     FM291100 VRB03KT 3SM BR FEW015
     FM291400 VRB04KT P6SM SCT250=



000
FTUS44 KHGX 281737
TAFHOU
TAF
KHOU 281737Z 2818/2918 19007KT P6SM SCT030
     FM282000 16009KT P6SM VCSH SCT060
     FM290200 17005KT P6SM FEW070 SCT150
     FM291100 VRB03KT P6SM FEW015=



000
FTUS44 KHGX 281737
TAFLBX
TAF
KLBX 281737Z 2818/2918 18011KT P6SM SCT050
     FM290100 17005KT P6SM SCT150
      TEMPO 2912/2914 4SM BR=



000
FTUS44 KHGX 281737
TAFGLS
TAF
KGLS 281737Z 2818/2918 17011KT P6SM SKC
     FM290500 22007KT P6SM SKC=



000
FTUS44 KHGX 281737
TAFUTS
TAF
KUTS 281737Z 2818/2918 20005KT P6SM FEW035
     FM282100 18007KT P6SM SCT060
     FM290200 17005KT P6SM SCT015
     FM291500 21004KT P6SM SCT250=



000
FTUS44 KHGX 281737
TAFHOU
TAF
KHOU 281737Z 2818/2918 19007KT P6SM SCT030
     FM282000 16009KT P6SM VCSH SCT060
     FM290200 17005KT P6SM FEW070 SCT150
     FM291100 VRB03KT P6SM FEW015=



000
FTUS44 KHGX 281737
TAFSGR
TAF
KSGR 281737Z 2818/2918 17008KT P6SM SCT050
     FM282000 16009KT P6SM VCSH SCT060
     FM290200 17005KT P6SM FEW070 SCT150
     FM291100 VRB03KT 3SM BR FEW015
     FM291400 VRB04KT P6SM SCT250=



000
FTUS44 KHGX 281737
TAFUTS
TAF
KUTS 281737Z 2818/2918 20005KT P6SM FEW035
     FM282100 18007KT P6SM SCT060
     FM290200 17005KT P6SM SCT015
     FM291500 21004KT P6SM SCT250=



000
FTUS44 KHGX 281737
TAFCLL
TAF
KCLL 281737Z 2818/2918 16010KT P6SM FEW060
     FM290300 17007KT P6SM SKC
     FM291100 VRB03KT 5SM BR BKN015
     FM291500 17005KT P6SM SCT250=



000
FTUS44 KHGX 281737
TAFCXO
TAF
KCXO 281737Z 2818/2918 VRB05KT P6SM SCT035
     FM282100 16007KT P6SM VCSH SCT060
     FM290100 VRB03KT P6SM SCT015
     FM291500 VRB04KT P6SM SCT250=



000
FTUS44 KHGX 281737
TAFCXO
TAF
KCXO 281737Z 2818/2918 VRB05KT P6SM SCT035
     FM282100 16007KT P6SM VCSH SCT060
     FM290100 VRB03KT P6SM SCT015
     FM291500 VRB04KT P6SM SCT250=



000
FTUS44 KHGX 281737
TAFIAH
TAF
KIAH 281737Z 2818/2924 19006KT P6SM SCT040
     FM282100 15008KT P6SM VCSH SCT060
     FM290200 17005KT P6SM FEW060
     FM291100 VRB03KT P6SM FEW015
     FM292100 14005KT P6SM SCT070=



000
FTUS44 KHGX 281737
TAFCLL
TAF
KCLL 281737Z 2818/2918 16010KT P6SM FEW060
     FM290300 17007KT P6SM SKC
     FM291100 VRB03KT 5SM BR BKN015
     FM291500 17005KT P6SM SCT250=



000
FTUS44 KHGX 281737
TAFIAH
TAF
KIAH 281737Z 2818/2924 19006KT P6SM SCT040
     FM282100 15008KT P6SM VCSH SCT060
     FM290200 17005KT P6SM FEW060
     FM291100 VRB03KT P6SM FEW015
     FM292100 14005KT P6SM SCT070=



000
FTUS44 KHGX 281737
TAFLBX
TAF
KLBX 281737Z 2818/2918 18011KT P6SM SCT050
     FM290100 17005KT P6SM SCT150
      TEMPO 2912/2914 4SM BR=



000
FTUS44 KHGX 281737
TAFSGR
TAF
KSGR 281737Z 2818/2918 17008KT P6SM SCT050
     FM282000 16009KT P6SM VCSH SCT060
     FM290200 17005KT P6SM FEW070 SCT150
     FM291100 VRB03KT 3SM BR FEW015
     FM291400 VRB04KT P6SM SCT250=



000
FTUS44 KHGX 281737
TAFGLS
TAF
KGLS 281737Z 2818/2918 17011KT P6SM SKC
     FM290500 22007KT P6SM SKC=



000
FTUS44 KHGX 281737
TAFIAH
TAF
KIAH 281737Z 2818/2924 19006KT P6SM SCT040
     FM282100 15008KT P6SM VCSH SCT060
     FM290200 17005KT P6SM FEW060
     FM291100 VRB03KT P6SM FEW015
     FM292100 14005KT P6SM SCT070=



000
FTUS44 KHGX 281737
TAFGLS
TAF
KGLS 281737Z 2818/2918 17011KT P6SM SKC
     FM290500 22007KT P6SM SKC=



000
FTUS44 KHGX 281737
TAFCXO
TAF
KCXO 281737Z 2818/2918 VRB05KT P6SM SCT035
     FM282100 16007KT P6SM VCSH SCT060
     FM290100 VRB03KT P6SM SCT015
     FM291500 VRB04KT P6SM SCT250=



000
FTUS44 KHGX 281458 AAB
TAFCXO
TAF AMD
KCXO 281458Z 2815/2912 19005KT P6SM SCT035
     FM282100 16007KT P6SM VCSH SCT060
     FM290100 VRB03KT P6SM SCT015=



000
FTUS44 KHGX 281458 AAA
TAFIAH
TAF AMD
KIAH 281458Z 2815/2918 19006KT P6SM SCT030
     FM282100 15008KT P6SM VCSH SCT060
     FM290200 17005KT P6SM FEW070 SCT150
     FM291100 VRB03KT P6SM FEW015=



000
FTUS44 KHGX 281458 AAA
TAFHOU
TAF AMD
KHOU 281458Z 2815/2912 19007KT P6SM SCT030
     FM282000 16009KT P6SM VCSH SCT060
     FM290200 17005KT P6SM FEW070 SCT150
     FM291100 VRB03KT P6SM FEW015=



000
FTUS44 KHGX 281458 AAB
TAFCXO
TAF AMD
KCXO 281458Z 2815/2912 19005KT P6SM SCT035
     FM282100 16007KT P6SM VCSH SCT060
     FM290100 VRB03KT P6SM SCT015=



000
FTUS44 KHGX 281458 AAA
TAFGLS
TAF AMD
KGLS 281458Z 2815/2912 18006KT P6SM SCT025
     FM281900 17011KT P6SM SKC
     FM290500 20007KT P6SM SKC=



000
FTUS44 KHGX 281458 AAB
TAFUTS
TAF AMD
KUTS 281458Z 2815/2912 20005KT P6SM FEW035
     FM282100 18007KT P6SM SCT060
     FM290200 17005KT P6SM SCT015=



000
FTUS44 KHGX 281458 AAA
TAFGLS
TAF AMD
KGLS 281458Z 2815/2912 18006KT P6SM SCT025
     FM281900 17011KT P6SM SKC
     FM290500 20007KT P6SM SKC=



000
FTUS44 KHGX 281458 AAB
TAFLBX
TAF AMD
KLBX 281458Z 2815/2912 18006KT P6SM SCT025
     FM281900 18011KT P6SM SCT050
     FM282300 17010KT P6SM FEW050
     FM290100 17005KT P6SM SCT150=



000
FTUS44 KHGX 281458 AAB
TAFLBX
TAF AMD
KLBX 281458Z 2815/2912 18006KT P6SM SCT025
     FM281900 18011KT P6SM SCT050
     FM282300 17010KT P6SM FEW050
     FM290100 17005KT P6SM SCT150=



000
FTUS44 KHGX 281458 AAC
TAFCLL
TAF AMD
KCLL 281458Z 2815/2912 18007KT P6SM SCT015
     FM282100 17010KT P6SM FEW060
     FM290300 17007KT P6SM SKC
     FM291100 VRB03KT 6SM BR SCT015=



000
FTUS44 KHGX 281458 AAA
TAFSGR
TAF AMD
KSGR 281458Z 2815/2912 VRB05KT P6SM SCT025
     FM281800 18007KT P6SM SCT050
     FM282000 16009KT P6SM VCSH SCT060
     FM290200 17005KT P6SM FEW070 SCT150
     FM291100 VRB03KT 3SM BR FEW015=



000
FTUS44 KHGX 281458 AAA
TAFSGR
TAF AMD
KSGR 281458Z 2815/2912 VRB05KT P6SM SCT025
     FM281800 18007KT P6SM SCT050
     FM282000 16009KT P6SM VCSH SCT060
     FM290200 17005KT P6SM FEW070 SCT150
     FM291100 VRB03KT 3SM BR FEW015=



000
FTUS44 KHGX 281401 AAA
TAFCXO
TAF AMD
KCXO 281401Z 2814/2912 VRB02KT 6SM BR SCT015
      TEMPO 2814/2815 BKN012
     FM281500 19005KT P6SM SCT035
     FM282100 16007KT P6SM VCSH SCT060
     FM290100 VRB03KT P6SM SCT015=



000
FTUS44 KHGX 281401 AAA
TAFUTS
TAF AMD
KUTS 281401Z 2814/2912 VRB02KT P6SM FEW008 SCT012
      TEMPO 2814/2815 BKN012
     FM281500 20005KT P6SM FEW035
     FM282100 18007KT P6SM SCT060
     FM290200 17005KT P6SM SCT015=



000
FTUS44 KHGX 281401 AAA
TAFUTS
TAF AMD
KUTS 281401Z 2814/2912 VRB02KT P6SM FEW008 SCT012
      TEMPO 2814/2815 BKN012
     FM281500 20005KT P6SM FEW035
     FM282100 18007KT P6SM SCT060
     FM290200 17005KT P6SM SCT015=



000
FTUS44 KHGX 281401 AAA
TAFCXO
TAF AMD
KCXO 281401Z 2814/2912 VRB02KT 6SM BR SCT015
      TEMPO 2814/2815 BKN012
     FM281500 19005KT P6SM SCT035
     FM282100 16007KT P6SM VCSH SCT060
     FM290100 VRB03KT P6SM SCT015=



000
FTUS44 KHGX 281401 AAA
TAFCXO
TAF AMD
KCXO 281401Z 2814/2912 VRB02KT 6SM BR SCT015
      TEMPO 2814/2815 BKN012
     FM281500 19005KT P6SM SCT035
     FM282100 16007KT P6SM VCSH SCT060
     FM290100 VRB03KT P6SM SCT015=



000
FTUS44 KHGX 281358 AAB
TAFCLL
TAF AMD
KCLL 281358Z 2814/2912 18007KT P6SM SCT009 SCT025
      TEMPO 2814/2815 BKN015
     FM282100 17010KT P6SM FEW060
     FM290300 17007KT P6SM SKC
     FM291100 VRB03KT 6SM BR SCT015=



000
FTUS44 KHGX 281358 AAB
TAFCLL
TAF AMD
KCLL 281358Z 2814/2912 18007KT P6SM SCT009 SCT025
      TEMPO 2814/2815 BKN015
     FM282100 17010KT P6SM FEW060
     FM290300 17007KT P6SM SKC
     FM291100 VRB03KT 6SM BR SCT015=



000
FTUS44 KHGX 281358 AAB
TAFCLL
TAF AMD
KCLL 281358Z 2814/2912 18007KT P6SM SCT009 SCT025
      TEMPO 2814/2815 BKN015
     FM282100 17010KT P6SM FEW060
     FM290300 17007KT P6SM SKC
     FM291100 VRB03KT 6SM BR SCT015=



000
FTUS44 KHGX 281216 AAA
TAFCLL
TAF AMD
KCLL 281216Z 2812/2912 VRB03KT 6SM BR FEW007 BKN015
      TEMPO 2812/2814 BKN007
     FM281400 18007KT P6SM FEW030
     FM282100 17010KT P6SM FEW060
     FM290300 17007KT P6SM SKC
     FM291100 VRB03KT 6SM BR SCT015=



000
FTUS44 KHGX 281216 AAA
TAFCLL
TAF AMD
KCLL 281216Z 2812/2912 VRB03KT 6SM BR FEW007 BKN015
      TEMPO 2812/2814 BKN007
     FM281400 18007KT P6SM FEW030
     FM282100 17010KT P6SM FEW060
     FM290300 17007KT P6SM SKC
     FM291100 VRB03KT 6SM BR SCT015=



000
FTUS44 KHGX 281215 AAA
TAFLBX
TAF AMD
KLBX 281215Z 2812/2912 VRB02KT 6SM BR SCT015
      TEMPO 2812/2814 3SM BR
     FM281400 18006KT P6SM SCT025
     FM281900 18011KT P6SM SCT050
     FM282300 17010KT P6SM FEW050
     FM290100 17005KT P6SM SCT150=



000
FTUS44 KHGX 281215 AAA
TAFLBX
TAF AMD
KLBX 281215Z 2812/2912 VRB02KT 6SM BR SCT015
      TEMPO 2812/2814 3SM BR
     FM281400 18006KT P6SM SCT025
     FM281900 18011KT P6SM SCT050
     FM282300 17010KT P6SM FEW050
     FM290100 17005KT P6SM SCT150=



000
FTUS44 KHGX 281122
TAFGLS
TAF
KGLS 281122Z 2812/2912 20005KT P6SM SKC
     FM281500 18006KT P6SM SCT025
     FM281900 17011KT P6SM SKC
     FM290500 20007KT P6SM SKC=



000
FTUS44 KHGX 281122
TAFCXO
TAF
KCXO 281122Z 2812/2912 VRB02KT 6SM BR SCT015
      TEMPO 2812/2814 BKN012
     FM281400 19005KT P6SM SCT035
     FM282100 16007KT P6SM VCSH SCT060
     FM290100 VRB03KT P6SM SCT015=



000
FTUS44 KHGX 281122
TAFIAH
TAF
KIAH 281122Z 2812/2918 19004KT P6SM SCT015 SCT250
     FM281500 18006KT P6SM SCT030
     FM282100 15008KT P6SM VCSH SCT060
     FM290200 17005KT P6SM FEW070 SCT150
     FM291100 VRB03KT P6SM FEW015=



000
FTUS44 KHGX 281122
TAFUTS
TAF
KUTS 281122Z 2812/2912 VRB02KT P6SM FEW008 SCT012
      TEMPO 2812/2814 BKN012
     FM281400 20005KT P6SM FEW035
     FM282100 18007KT P6SM SCT060
     FM290200 17005KT P6SM SCT015=



000
FTUS44 KHGX 281122
TAFHOU
TAF
KHOU 281122Z 2812/2912 19003KT P6SM SCT015 SCT250
     FM281500 18007KT P6SM SCT040
     FM282000 16009KT P6SM VCSH SCT060
     FM290200 17005KT P6SM FEW070 SCT150
     FM291100 VRB03KT P6SM FEW015=



000
FTUS44 KHGX 281122
TAFLBX
TAF
KLBX 281122Z 2812/2912 VRB02KT 6SM BR SCT015
     FM281400 18006KT P6SM SCT025
     FM281900 18011KT P6SM SCT050
     FM282300 17010KT P6SM FEW050
     FM290100 17005KT P6SM SCT150=



000
FTUS44 KHGX 281122
TAFGLS
TAF
KGLS 281122Z 2812/2912 20005KT P6SM SKC
     FM281500 18006KT P6SM SCT025
     FM281900 17011KT P6SM SKC
     FM290500 20007KT P6SM SKC=



000
FTUS44 KHGX 281122
TAFSGR
TAF
KSGR 281122Z 2812/2912 VRB03KT 4SM BR SCT015
      TEMPO 2812/2813 2SM BR
     FM281400 20005KT P6SM SCT025
     FM281800 18007KT P6SM SCT050
     FM282000 16009KT P6SM VCSH SCT060
     FM290200 17005KT P6SM FEW070 SCT150
     FM291100 VRB03KT 3SM BR FEW015=



000
FTUS44 KHGX 281122
TAFLBX
TAF
KLBX 281122Z 2812/2912 VRB02KT 6SM BR SCT015
     FM281400 18006KT P6SM SCT025
     FM281900 18011KT P6SM SCT050
     FM282300 17010KT P6SM FEW050
     FM290100 17005KT P6SM SCT150=



000
FTUS44 KHGX 281122
TAFCXO
TAF
KCXO 281122Z 2812/2912 VRB02KT 6SM BR SCT015
      TEMPO 2812/2814 BKN012
     FM281400 19005KT P6SM SCT035
     FM282100 16007KT P6SM VCSH SCT060
     FM290100 VRB03KT P6SM SCT015=



000
FTUS44 KHGX 281122
TAFSGR
TAF
KSGR 281122Z 2812/2912 VRB03KT 4SM BR SCT015
      TEMPO 2812/2813 2SM BR
     FM281400 20005KT P6SM SCT025
     FM281800 18007KT P6SM SCT050
     FM282000 16009KT P6SM VCSH SCT060
     FM290200 17005KT P6SM FEW070 SCT150
     FM291100 VRB03KT 3SM BR FEW015=



000
FTUS44 KHGX 281122
TAFIAH
TAF
KIAH 281122Z 2812/2918 19004KT P6SM SCT015 SCT250
     FM281500 18006KT P6SM SCT030
     FM282100 15008KT P6SM VCSH SCT060
     FM290200 17005KT P6SM FEW070 SCT150
     FM291100 VRB03KT P6SM FEW015=



000
FTUS44 KHGX 281122
TAFCLL
TAF
KCLL 281122Z 2812/2912 VRB03KT 6SM BR FEW008 BKN015
     FM281400 18007KT P6SM FEW030
     FM282100 17010KT P6SM FEW060
     FM290300 17007KT P6SM SKC
     FM291100 VRB03KT 6SM BR SCT015=



000
FTUS44 KHGX 281122
TAFHOU
TAF
KHOU 281122Z 2812/2912 19003KT P6SM SCT015 SCT250
     FM281500 18007KT P6SM SCT040
     FM282000 16009KT P6SM VCSH SCT060
     FM290200 17005KT P6SM FEW070 SCT150
     FM291100 VRB03KT P6SM FEW015=



000
FTUS44 KHGX 281122
TAFUTS
TAF
KUTS 281122Z 2812/2912 VRB02KT P6SM FEW008 SCT012
      TEMPO 2812/2814 BKN012
     FM281400 20005KT P6SM FEW035
     FM282100 18007KT P6SM SCT060
     FM290200 17005KT P6SM SCT015=



000
FTUS44 KHGX 281122
TAFSGR
TAF
KSGR 281122Z 2812/2912 VRB03KT 4SM BR SCT015
      TEMPO 2812/2813 2SM BR
     FM281400 20005KT P6SM SCT025
     FM281800 18007KT P6SM SCT050
     FM282000 16009KT P6SM VCSH SCT060
     FM290200 17005KT P6SM FEW070 SCT150
     FM291100 VRB03KT 3SM BR FEW015=



000
FTUS44 KHGX 281122
TAFIAH
TAF
KIAH 281122Z 2812/2918 19004KT P6SM SCT015 SCT250
     FM281500 18006KT P6SM SCT030
     FM282100 15008KT P6SM VCSH SCT060
     FM290200 17005KT P6SM FEW070 SCT150
     FM291100 VRB03KT P6SM FEW015=



000
FTUS44 KHGX 281122
TAFCLL
TAF
KCLL 281122Z 2812/2912 VRB03KT 6SM BR FEW008 BKN015
     FM281400 18007KT P6SM FEW030
     FM282100 17010KT P6SM FEW060
     FM290300 17007KT P6SM SKC
     FM291100 VRB03KT 6SM BR SCT015=



000
FTUS44 KHGX 281122
TAFUTS
TAF
KUTS 281122Z 2812/2912 VRB02KT P6SM FEW008 SCT012
      TEMPO 2812/2814 BKN012
     FM281400 20005KT P6SM FEW035
     FM282100 18007KT P6SM SCT060
     FM290200 17005KT P6SM SCT015=



000
FTUS44 KHGX 281122
TAFGLS
TAF
KGLS 281122Z 2812/2912 20005KT P6SM SKC
     FM281500 18006KT P6SM SCT025
     FM281900 17011KT P6SM SKC
     FM290500 20007KT P6SM SKC=



000
FTUS44 KHGX 281122
TAFHOU
TAF
KHOU 281122Z 2812/2912 19003KT P6SM SCT015 SCT250
     FM281500 18007KT P6SM SCT040
     FM282000 16009KT P6SM VCSH SCT060
     FM290200 17005KT P6SM FEW070 SCT150
     FM291100 VRB03KT P6SM FEW015=



000
FTUS44 KHGX 281122
TAFSGR
TAF
KSGR 281122Z 2812/2912 VRB03KT 4SM BR SCT015
      TEMPO 2812/2813 2SM BR
     FM281400 20005KT P6SM SCT025
     FM281800 18007KT P6SM SCT050
     FM282000 16009KT P6SM VCSH SCT060
     FM290200 17005KT P6SM FEW070 SCT150
     FM291100 VRB03KT 3SM BR FEW015=



000
FTUS44 KHGX 281122
TAFLBX
TAF
KLBX 281122Z 2812/2912 VRB02KT 6SM BR SCT015
     FM281400 18006KT P6SM SCT025
     FM281900 18011KT P6SM SCT050
     FM282300 17010KT P6SM FEW050
     FM290100 17005KT P6SM SCT150=



000
FTUS44 KHGX 281122
TAFCLL
TAF
KCLL 281122Z 2812/2912 VRB03KT 6SM BR FEW008 BKN015
     FM281400 18007KT P6SM FEW030
     FM282100 17010KT P6SM FEW060
     FM290300 17007KT P6SM SKC
     FM291100 VRB03KT 6SM BR SCT015=



000
FTUS44 KHGX 281122
TAFCXO
TAF
KCXO 281122Z 2812/2912 VRB02KT 6SM BR SCT015
      TEMPO 2812/2814 BKN012
     FM281400 19005KT P6SM SCT035
     FM282100 16007KT P6SM VCSH SCT060
     FM290100 VRB03KT P6SM SCT015=



000
FTUS44 KHGX 281122
TAFGLS
TAF
KGLS 281122Z 2812/2912 20005KT P6SM SKC
     FM281500 18006KT P6SM SCT025
     FM281900 17011KT P6SM SKC
     FM290500 20007KT P6SM SKC=



000
FTUS44 KHGX 281122
TAFLBX
TAF
KLBX 281122Z 2812/2912 VRB02KT 6SM BR SCT015
     FM281400 18006KT P6SM SCT025
     FM281900 18011KT P6SM SCT050
     FM282300 17010KT P6SM FEW050
     FM290100 17005KT P6SM SCT150=



000
FTUS44 KHGX 281122
TAFIAH
TAF
KIAH 281122Z 2812/2918 19004KT P6SM SCT015 SCT250
     FM281500 18006KT P6SM SCT030
     FM282100 15008KT P6SM VCSH SCT060
     FM290200 17005KT P6SM FEW070 SCT150
     FM291100 VRB03KT P6SM FEW015=



000
FTUS44 KHGX 281122
TAFCXO
TAF
KCXO 281122Z 2812/2912 VRB02KT 6SM BR SCT015
      TEMPO 2812/2814 BKN012
     FM281400 19005KT P6SM SCT035
     FM282100 16007KT P6SM VCSH SCT060
     FM290100 VRB03KT P6SM SCT015=



000
FTUS44 KHGX 281122
TAFCLL
TAF
KCLL 281122Z 2812/2912 VRB03KT 6SM BR FEW008 BKN015
     FM281400 18007KT P6SM FEW030
     FM282100 17010KT P6SM FEW060
     FM290300 17007KT P6SM SKC
     FM291100 VRB03KT 6SM BR SCT015=



000
FTUS44 KHGX 281122
TAFUTS
TAF
KUTS 281122Z 2812/2912 VRB02KT P6SM FEW008 SCT012
      TEMPO 2812/2814 BKN012
     FM281400 20005KT P6SM FEW035
     FM282100 18007KT P6SM SCT060
     FM290200 17005KT P6SM SCT015=



000
FTUS44 KHGX 281122
TAFHOU
TAF
KHOU 281122Z 2812/2912 19003KT P6SM SCT015 SCT250
     FM281500 18007KT P6SM SCT040
     FM282000 16009KT P6SM VCSH SCT060
     FM290200 17005KT P6SM FEW070 SCT150
     FM291100 VRB03KT P6SM FEW015=



000
FTUS44 KHGX 280844 AAA
TAFHOU
TAF AMD
KHOU 280844Z 2809/2906 19003KT P6SM FEW018 SCT250
     FM281500 19006KT P6SM SCT025
     FM281800 18007KT P6SM SCT050
     FM282100 16009KT P6SM VCSH SCT060
     FM290200 17005KT P6SM FEW070 SCT150=



000
FTUS44 KHGX 280844 AAA
TAFHOU
TAF AMD
KHOU 280844Z 2809/2906 19003KT P6SM FEW018 SCT250
     FM281500 19006KT P6SM SCT025
     FM281800 18007KT P6SM SCT050
     FM282100 16009KT P6SM VCSH SCT060
     FM290200 17005KT P6SM FEW070 SCT150=



000
FTUS44 KHGX 280843 AAA
TAFIAH
TAF AMD
KIAH 280843Z 2809/2912 VRB03KT P6SM SCT250
     FM281100 19004KT P6SM SCT015
     FM281500 20006KT P6SM SCT030
     FM282100 16008KT P6SM VCSH SCT060
     FM290200 17005KT P6SM FEW070 SCT150
     FM291100 21003KT P6SM FEW015=



000
FTUS44 KHGX 280843 AAA
TAFIAH
TAF AMD
KIAH 280843Z 2809/2912 VRB03KT P6SM SCT250
     FM281100 19004KT P6SM SCT015
     FM281500 20006KT P6SM SCT030
     FM282100 16008KT P6SM VCSH SCT060
     FM290200 17005KT P6SM FEW070 SCT150
     FM291100 21003KT P6SM FEW015=



000
FTUS44 KHGX 280820 AAA
TAFSGR
TAF AMD
KSGR 280820Z 2808/2906 VRB03KT P6SM SCT012
      TEMPO 2808/2812 4SM BR BKN012
     FM281500 20005KT P6SM SCT025
     FM281800 18007KT P6SM SCT050
     FM282100 16009KT P6SM VCSH SCT060
     FM290200 17005KT P6SM FEW070 SCT150=



000
FTUS44 KHGX 280820 AAA
TAFSGR
TAF AMD
KSGR 280820Z 2808/2906 VRB03KT P6SM SCT012
      TEMPO 2808/2812 4SM BR BKN012
     FM281500 20005KT P6SM SCT025
     FM281800 18007KT P6SM SCT050
     FM282100 16009KT P6SM VCSH SCT060
     FM290200 17005KT P6SM FEW070 SCT150=



000
FTUS44 KHGX 280520
TAFSGR
TAF
KSGR 280520Z 2806/2906 18005KT P6SM SKC
     FM281000 VRB03KT 3SM BR SCT012
     FM281500 20005KT P6SM SCT025
     FM281800 18007KT P6SM SCT050
     FM282100 16009KT P6SM VCSH SCT060
     FM290200 17005KT P6SM FEW070 SCT150=



000
FTUS44 KHGX 280520
TAFCLL
TAF
KCLL 280520Z 2806/2906 17007KT P6SM SKC
     FM281100 VRB03KT 6SM BR FEW008 BKN015
     FM281400 19006KT P6SM FEW030
     FM282100 17010KT P6SM FEW060
     FM290300 17007KT P6SM SKC=



000
FTUS44 KHGX 280520
TAFCXO
TAF
KCXO 280520Z 2806/2906 VRB04KT P6SM FEW250
     FM281000 VRB02KT 6SM BR BKN015
     FM281400 19005KT P6SM SCT035
     FM282100 17007KT P6SM VCSH SCT060
     FM290010 VRB03KT P6SM SKC=



000
FTUS44 KHGX 280520
TAFIAH
TAF
KIAH 280520Z 2806/2912 17007KT P6SM FEW035 SCT250
     FM281000 19004KT P6SM SCT015
     FM281500 20006KT P6SM SCT030
     FM282100 16008KT P6SM VCSH SCT060
     FM290200 17005KT P6SM FEW070 SCT150
     FM291100 21003KT P6SM FEW015=



000
FTUS44 KHGX 280520
TAFGLS
TAF
KGLS 280520Z 2806/2906 22004KT P6SM SKC
     FM281500 18006KT P6SM SCT025
     FM282000 17011KT P6SM SKC
     FM290200 19007KT P6SM SKC=



000
FTUS44 KHGX 280520
TAFLBX
TAF
KLBX 280520Z 2806/2906 18005KT P6SM SKC
     FM281000 VRB02KT 5SM BR SCT015
     FM281500 18006KT P6SM SCT025
     FM281900 18011KT P6SM SCT050
     FM282300 17010KT P6SM FEW050
     FM290100 17005KT P6SM SCT150=



000
FTUS44 KHGX 280520
TAFLBX
TAF
KLBX 280520Z 2806/2906 18005KT P6SM SKC
     FM281000 VRB02KT 5SM BR SCT015
     FM281500 18006KT P6SM SCT025
     FM281900 18011KT P6SM SCT050
     FM282300 17010KT P6SM FEW050
     FM290100 17005KT P6SM SCT150=



000
FTUS44 KHGX 280520
TAFCLL
TAF
KCLL 280520Z 2806/2906 17007KT P6SM SKC
     FM281100 VRB03KT 6SM BR FEW008 BKN015
     FM281400 19006KT P6SM FEW030
     FM282100 17010KT P6SM FEW060
     FM290300 17007KT P6SM SKC=



000
FTUS44 KHGX 280520
TAFUTS
TAF
KUTS 280520Z 2806/2906 VRB03KT P6SM SKC
     FM281000 VRB02KT P6SM FEW008 BKN012
     FM281400 20005KT P6SM FEW035
     FM282100 18007KT P6SM SCT060
     FM290200 17005KT P6SM SKC=



000
FTUS44 KHGX 280520
TAFHOU
TAF
KHOU 280520Z 2806/2906 19006KT P6SM FEW250
     FM280900 19003KT P6SM FEW020
     FM281500 19006KT P6SM SCT025
     FM281800 18007KT P6SM SCT050
     FM282100 16009KT P6SM VCSH SCT060
     FM290200 17005KT P6SM FEW070 SCT150=



000
FTUS44 KHGX 280520
TAFCXO
TAF
KCXO 280520Z 2806/2906 VRB04KT P6SM FEW250
     FM281000 VRB02KT 6SM BR BKN015
     FM281400 19005KT P6SM SCT035
     FM282100 17007KT P6SM VCSH SCT060
     FM290010 VRB03KT P6SM SKC=



000
FTUS44 KHGX 280520
TAFGLS
TAF
KGLS 280520Z 2806/2906 22004KT P6SM SKC
     FM281500 18006KT P6SM SCT025
     FM282000 17011KT P6SM SKC
     FM290200 19007KT P6SM SKC=



000
FTUS44 KHGX 280520
TAFHOU
TAF
KHOU 280520Z 2806/2906 19006KT P6SM FEW250
     FM280900 19003KT P6SM FEW020
     FM281500 19006KT P6SM SCT025
     FM281800 18007KT P6SM SCT050
     FM282100 16009KT P6SM VCSH SCT060
     FM290200 17005KT P6SM FEW070 SCT150=



000
FTUS44 KHGX 280520
TAFSGR
TAF
KSGR 280520Z 2806/2906 18005KT P6SM SKC
     FM281000 VRB03KT 3SM BR SCT012
     FM281500 20005KT P6SM SCT025
     FM281800 18007KT P6SM SCT050
     FM282100 16009KT P6SM VCSH SCT060
     FM290200 17005KT P6SM FEW070 SCT150=



000
FTUS44 KHGX 280520
TAFUTS
TAF
KUTS 280520Z 2806/2906 VRB03KT P6SM SKC
     FM281000 VRB02KT P6SM FEW008 BKN012
     FM281400 20005KT P6SM FEW035
     FM282100 18007KT P6SM SCT060
     FM290200 17005KT P6SM SKC=



000
FTUS44 KHGX 280520
TAFIAH
TAF
KIAH 280520Z 2806/2912 17007KT P6SM FEW035 SCT250
     FM281000 19004KT P6SM SCT015
     FM281500 20006KT P6SM SCT030
     FM282100 16008KT P6SM VCSH SCT060
     FM290200 17005KT P6SM FEW070 SCT150
     FM291100 21003KT P6SM FEW015=



000
FTUS44 KHGX 280334 AAA
TAFHOU
TAF AMD
KHOU 280334Z 2804/2824 19006KT P6SM FEW250
     FM280900 19003KT P6SM FEW020
     FM281500 19006KT P6SM SCT025
     FM281800 18007KT P6SM SCT050
     FM282100 16007KT P6SM VCSH SCT060=



000
FTUS44 KHGX 280334 AAA
TAFHOU
TAF AMD
KHOU 280334Z 2804/2824 19006KT P6SM FEW250
     FM280900 19003KT P6SM FEW020
     FM281500 19006KT P6SM SCT025
     FM281800 18007KT P6SM SCT050
     FM282100 16007KT P6SM VCSH SCT060=



000
FTUS44 KHGX 280334 AAA
TAFIAH
TAF AMD
KIAH 280334Z 2804/2906 17007KT P6SM FEW035 SCT250
     FM281000 19004KT P6SM SCT015
     FM281500 20006KT P6SM SCT030
     FM282100 16007KT P6SM VCSH SCT060
     FM290200 18004KT P6SM FEW060 SCT150=



000
FTUS44 KHGX 280334 AAA
TAFIAH
TAF AMD
KIAH 280334Z 2804/2906 17007KT P6SM FEW035 SCT250
     FM281000 19004KT P6SM SCT015
     FM281500 20006KT P6SM SCT030
     FM282100 16007KT P6SM VCSH SCT060
     FM290200 18004KT P6SM FEW060 SCT150=



000
FTUS44 KHGX 280334 AAA
TAFIAH
TAF AMD
KIAH 280334Z 2804/2906 17007KT P6SM FEW035 SCT250
     FM281000 19004KT P6SM SCT015
     FM281500 20006KT P6SM SCT030
     FM282100 16007KT P6SM VCSH SCT060
     FM290200 18004KT P6SM FEW060 SCT150=



000
FTUS44 KHGX 280011 AAA
TAFCXO
TAF AMD
KCXO 280011Z 2800/2824 14007KT P6SM VCSH SCT050
      TEMPO 2800/2801 VRB15KT 6SM SHRA SCT035 SCT050
     FM280100 VRB04KT P6SM FEW250
     FM281000 VRB02KT 6SM BR BKN015
     FM281400 19005KT P6SM SCT035
     FM282100 17007KT P6SM VCSH SCT060=



000
FTUS44 KHGX 280011 AAA
TAFCXO
TAF AMD
KCXO 280011Z 2800/2824 14007KT P6SM VCSH SCT050
      TEMPO 2800/2801 VRB15KT 6SM SHRA SCT035 SCT050
     FM280100 VRB04KT P6SM FEW250
     FM281000 VRB02KT 6SM BR BKN015
     FM281400 19005KT P6SM SCT035
     FM282100 17007KT P6SM VCSH SCT060=



000
FTUS44 KHGX 280011 AAA
TAFCXO
TAF AMD
KCXO 280011Z 2800/2824 14007KT P6SM VCSH SCT050
      TEMPO 2800/2801 VRB15KT 6SM SHRA SCT035 SCT050
     FM280100 VRB04KT P6SM FEW250
     FM281000 VRB02KT 6SM BR BKN015
     FM281400 19005KT P6SM SCT035
     FM282100 17007KT P6SM VCSH SCT060=



000
FTUS44 KHGX 280011 AAA
TAFCXO
TAF AMD
KCXO 280011Z 2800/2824 14007KT P6SM VCSH SCT050
      TEMPO 2800/2801 VRB15KT 6SM SHRA SCT035 SCT050
     FM280100 VRB04KT P6SM FEW250
     FM281000 VRB02KT 6SM BR BKN015
     FM281400 19005KT P6SM SCT035
     FM282100 17007KT P6SM VCSH SCT060=



000
FTUS44 KHGX 272320
TAFUTS
TAF
KUTS 272320Z 2800/2824 18007KT P6SM FEW060
     FM280100 VRB03KT P6SM SKC
     FM281000 VRB02KT P6SM FEW008 BKN012
     FM281400 20005KT P6SM FEW035
     FM282100 18006KT P6SM SCT060=



000
FTUS44 KHGX 272320
TAFCLL
TAF
KCLL 272320Z 2800/2824 15012KT P6SM FEW060
     FM280200 17005KT P6SM SKC
     FM281100 VRB03KT 6SM BR FEW008 BKN015
     FM281400 19006KT P6SM FEW030
     FM282100 17010KT P6SM FEW060=



000
FTUS44 KHGX 272320
TAFIAH
TAF
KIAH 272320Z 2800/2906 14010KT P6SM VCSH SCT050
     FM280100 18005KT P6SM FEW250
     FM281000 19004KT P6SM SCT015
     FM281500 20006KT P6SM SCT030
     FM282100 16007KT P6SM VCSH SCT060
     FM290200 18004KT P6SM FEW060 SCT150=



000
FTUS44 KHGX 272320
TAFCXO
TAF
KCXO 272320Z 2800/2824 14007KT P6SM VCSH SCT050
     FM280100 VRB04KT P6SM FEW250
     FM281000 VRB02KT 6SM BR BKN015
     FM281400 19005KT P6SM SCT035
     FM282100 17007KT P6SM VCSH SCT060=



000
FTUS44 KHGX 272320
TAFGLS
TAF
KGLS 272320Z 2800/2824 17010KT P6SM FEW025 FEW045
     FM280400 22004KT P6SM SKC
     FM281500 18006KT P6SM SCT025
     FM282000 17011KT P6SM SKC=



000
FTUS44 KHGX 272320
TAFHOU
TAF
KHOU 272320Z 2800/2824 16010KT P6SM FEW050
     FM280200 18005KT P6SM FEW250
     FM280900 19003KT P6SM FEW020
     FM281500 19006KT P6SM SCT025
     FM281800 18007KT P6SM SCT050
     FM282100 16007KT P6SM VCSH SCT060=



000
FTUS44 KHGX 272320
TAFCXO
TAF
KCXO 272320Z 2800/2824 14007KT P6SM VCSH SCT050
     FM280100 VRB04KT P6SM FEW250
     FM281000 VRB02KT 6SM BR BKN015
     FM281400 19005KT P6SM SCT035
     FM282100 17007KT P6SM VCSH SCT060=



000
FTUS44 KHGX 272320
TAFSGR
TAF
KSGR 272320Z 2800/2824 15010KT P6SM FEW050
     FM280100 18005KT P6SM SKC
     FM281000 VRB03KT 3SM BR SCT012
     FM281500 20005KT P6SM SCT025
     FM281800 18007KT P6SM SCT050
     FM282100 16007KT P6SM VCSH SCT060=



000
FTUS44 KHGX 272320
TAFGLS
TAF
KGLS 272320Z 2800/2824 17010KT P6SM FEW025 FEW045
     FM280400 22004KT P6SM SKC
     FM281500 18006KT P6SM SCT025
     FM282000 17011KT P6SM SKC=



000
FTUS44 KHGX 272320
TAFUTS
TAF
KUTS 272320Z 2800/2824 18007KT P6SM FEW060
     FM280100 VRB03KT P6SM SKC
     FM281000 VRB02KT P6SM FEW008 BKN012
     FM281400 20005KT P6SM FEW035
     FM282100 18006KT P6SM SCT060=



000
FTUS44 KHGX 272320
TAFCXO
TAF
KCXO 272320Z 2800/2824 14007KT P6SM VCSH SCT050
     FM280100 VRB04KT P6SM FEW250
     FM281000 VRB02KT 6SM BR BKN015
     FM281400 19005KT P6SM SCT035
     FM282100 17007KT P6SM VCSH SCT060=



000
FTUS44 KHGX 272320
TAFHOU
TAF
KHOU 272320Z 2800/2824 16010KT P6SM FEW050
     FM280200 18005KT P6SM FEW250
     FM280900 19003KT P6SM FEW020
     FM281500 19006KT P6SM SCT025
     FM281800 18007KT P6SM SCT050
     FM282100 16007KT P6SM VCSH SCT060=



000
FTUS44 KHGX 272320
TAFLBX
TAF
KLBX 272320Z 2800/2824 16010KT P6SM SCT050
     FM280100 18005KT P6SM SKC
     FM281000 VRB02KT 5SM BR SCT015
     FM281500 18006KT P6SM SCT025
     FM281900 18011KT P6SM SCT050
     FM282300 17010KT P6SM FEW050=



000
FTUS44 KHGX 272320
TAFLBX
TAF
KLBX 272320Z 2800/2824 16010KT P6SM SCT050
     FM280100 18005KT P6SM SKC
     FM281000 VRB02KT 5SM BR SCT015
     FM281500 18006KT P6SM SCT025
     FM281900 18011KT P6SM SCT050
     FM282300 17010KT P6SM FEW050=



000
FTUS44 KHGX 272320
TAFCLL
TAF
KCLL 272320Z 2800/2824 15012KT P6SM FEW060
     FM280200 17005KT P6SM SKC
     FM281100 VRB03KT 6SM BR FEW008 BKN015
     FM281400 19006KT P6SM FEW030
     FM282100 17010KT P6SM FEW060=



000
FTUS44 KHGX 272320
TAFLBX
TAF
KLBX 272320Z 2800/2824 16010KT P6SM SCT050
     FM280100 18005KT P6SM SKC
     FM281000 VRB02KT 5SM BR SCT015
     FM281500 18006KT P6SM SCT025
     FM281900 18011KT P6SM SCT050
     FM282300 17010KT P6SM FEW050=



000
FTUS44 KHGX 272320
TAFHOU
TAF
KHOU 272320Z 2800/2824 16010KT P6SM FEW050
     FM280200 18005KT P6SM FEW250
     FM280900 19003KT P6SM FEW020
     FM281500 19006KT P6SM SCT025
     FM281800 18007KT P6SM SCT050
     FM282100 16007KT P6SM VCSH SCT060=



000
FTUS44 KHGX 272320
TAFIAH
TAF
KIAH 272320Z 2800/2906 14010KT P6SM VCSH SCT050
     FM280100 18005KT P6SM FEW250
     FM281000 19004KT P6SM SCT015
     FM281500 20006KT P6SM SCT030
     FM282100 16007KT P6SM VCSH SCT060
     FM290200 18004KT P6SM FEW060 SCT150=



000
FTUS44 KHGX 272320
TAFUTS
TAF
KUTS 272320Z 2800/2824 18007KT P6SM FEW060
     FM280100 VRB03KT P6SM SKC
     FM281000 VRB02KT P6SM FEW008 BKN012
     FM281400 20005KT P6SM FEW035
     FM282100 18006KT P6SM SCT060=



000
FTUS44 KHGX 272320
TAFLBX
TAF
KLBX 272320Z 2800/2824 16010KT P6SM SCT050
     FM280100 18005KT P6SM SKC
     FM281000 VRB02KT 5SM BR SCT015
     FM281500 18006KT P6SM SCT025
     FM281900 18011KT P6SM SCT050
     FM282300 17010KT P6SM FEW050=



000
FTUS44 KHGX 272320
TAFSGR
TAF
KSGR 272320Z 2800/2824 15010KT P6SM FEW050
     FM280100 18005KT P6SM SKC
     FM281000 VRB03KT 3SM BR SCT012
     FM281500 20005KT P6SM SCT025
     FM281800 18007KT P6SM SCT050
     FM282100 16007KT P6SM VCSH SCT060=



000
FTUS44 KHGX 272320
TAFGLS
TAF
KGLS 272320Z 2800/2824 17010KT P6SM FEW025 FEW045
     FM280400 22004KT P6SM SKC
     FM281500 18006KT P6SM SCT025
     FM282000 17011KT P6SM SKC=



000
FTUS44 KHGX 272320
TAFSGR
TAF
KSGR 272320Z 2800/2824 15010KT P6SM FEW050
     FM280100 18005KT P6SM SKC
     FM281000 VRB03KT 3SM BR SCT012
     FM281500 20005KT P6SM SCT025
     FM281800 18007KT P6SM SCT050
     FM282100 16007KT P6SM VCSH SCT060=



000
FTUS44 KHGX 272320
TAFCLL
TAF
KCLL 272320Z 2800/2824 15012KT P6SM FEW060
     FM280200 17005KT P6SM SKC
     FM281100 VRB03KT 6SM BR FEW008 BKN015
     FM281400 19006KT P6SM FEW030
     FM282100 17010KT P6SM FEW060=



000
FTUS44 KHGX 272320
TAFGLS
TAF
KGLS 272320Z 2800/2824 17010KT P6SM FEW025 FEW045
     FM280400 22004KT P6SM SKC
     FM281500 18006KT P6SM SCT025
     FM282000 17011KT P6SM SKC=



000
FTUS44 KHGX 272320
TAFIAH
TAF
KIAH 272320Z 2800/2906 14010KT P6SM VCSH SCT050
     FM280100 18005KT P6SM FEW250
     FM281000 19004KT P6SM SCT015
     FM281500 20006KT P6SM SCT030
     FM282100 16007KT P6SM VCSH SCT060
     FM290200 18004KT P6SM FEW060 SCT150=



000
FTUS44 KHGX 272320
TAFSGR
TAF
KSGR 272320Z 2800/2824 15010KT P6SM FEW050
     FM280100 18005KT P6SM SKC
     FM281000 VRB03KT 3SM BR SCT012
     FM281500 20005KT P6SM SCT025
     FM281800 18007KT P6SM SCT050
     FM282100 16007KT P6SM VCSH SCT060=



000
FTUS44 KHGX 272320
TAFUTS
TAF
KUTS 272320Z 2800/2824 18007KT P6SM FEW060
     FM280100 VRB03KT P6SM SKC
     FM281000 VRB02KT P6SM FEW008 BKN012
     FM281400 20005KT P6SM FEW035
     FM282100 18006KT P6SM SCT060=



000
FTUS44 KHGX 272104 AAA
TAFIAH
TAF AMD
KIAH 272104Z 2721/2824 15009KT P6SM VCSH SCT060
      TEMPO 2721/2723 6SM -RA
     FM280100 18005KT P6SM FEW250
     FM281000 19004KT P6SM SCT015
     FM281500 20006KT P6SM SCT030
     FM282100 16007KT P6SM VCSH SCT060=



000
FTUS44 KHGX 272104 AAA
TAFHOU
TAF AMD
KHOU 272104Z 2721/2818 15010KT P6SM VCSH SCT050
      TEMPO 2721/2723 6SM -RA
     FM280300 18005KT P6SM FEW250
     FM280600 19003KT P6SM SCT012
     FM281500 20006KT P6SM SCT030=



000
FTUS44 KHGX 272104 AAA
TAFHOU
TAF AMD
KHOU 272104Z 2721/2818 15010KT P6SM VCSH SCT050
      TEMPO 2721/2723 6SM -RA
     FM280300 18005KT P6SM FEW250
     FM280600 19003KT P6SM SCT012
     FM281500 20006KT P6SM SCT030=



000
FTUS44 KHGX 272104 AAA
TAFIAH
TAF AMD
KIAH 272104Z 2721/2824 15009KT P6SM VCSH SCT060
      TEMPO 2721/2723 6SM -RA
     FM280100 18005KT P6SM FEW250
     FM281000 19004KT P6SM SCT015
     FM281500 20006KT P6SM SCT030
     FM282100 16007KT P6SM VCSH SCT060=



000
FTUS44 KHGX 272104 AAA
TAFIAH
TAF AMD
KIAH 272104Z 2721/2824 15009KT P6SM VCSH SCT060
      TEMPO 2721/2723 6SM -RA
     FM280100 18005KT P6SM FEW250
     FM281000 19004KT P6SM SCT015
     FM281500 20006KT P6SM SCT030
     FM282100 16007KT P6SM VCSH SCT060=



000
FTUS44 KHGX 272104 AAA
TAFHOU
TAF AMD
KHOU 272104Z 2721/2818 15010KT P6SM VCSH SCT050
      TEMPO 2721/2723 6SM -RA
     FM280300 18005KT P6SM FEW250
     FM280600 19003KT P6SM SCT012
     FM281500 20006KT P6SM SCT030=



    US Dept of Commerce
    National Oceanic and Atmospheric Administration
    National Weather Service
    1325 East West Highway
    Silver Spring, MD 20910
    Page Author: NWS Internet Services Team
Disclaimer
Information Quality
Credits
Glossary
Privacy Policy
Freedom of Information Act (FOIA)
About Us
Career Opportunities